<?xml version="1.0" encoding="UTF-8" standalone="no" ?>
<gpx xmlns="http://www.topografix.com/GPX/1/1" xmlns:xsi="http://www.w3.org/2001/XMLSchema-instance" xsi:schemaLocation="http://www.topografix.com/GPX/1/1 http://www.topografix.com/GPX/1/1/gpx.xsd" version="1.1" creator="VisuGPX - https://www.visugpx.com">
  <metadata>
    <name>L Aulp Du Seuil</name>
    <desc><![CDATA[grp_trc:[nouvelles]]]></desc>
  </metadata>
  <trk>
    <name><![CDATA[16 oct. 2021 à 08:51:13]]></name>
    <cmt><![CDATA[16 oct. 2021 à 08:51:13]]></cmt>
    <trkseg>
      <trkpt lat="45.49778" lon="6.96818">
        <ele>2978</ele>
        <time>2021-10-16T06:51:19Z</time>
      </trkpt>
      <trkpt lat="45.49778" lon="6.96817">
        <ele>2979</ele>
        <time>2021-10-16T06:51:20Z</time>
      </trkpt>
      <trkpt lat="45.50371" lon="6.97803">
        <ele>3151</ele>
        <time>2021-10-16T07:27:13Z</time>
      </trkpt>
      <trkpt lat="45.50369" lon="6.97813">
        <ele>3158</ele>
        <time>2021-10-16T07:28:06Z</time>
      </trkpt>
      <trkpt lat="45.50376" lon="6.97817">
        <ele>3161</ele>
        <time>2021-10-16T07:28:26Z</time>
      </trkpt>
      <trkpt lat="45.50381" lon="6.97816">
        <ele>3162</ele>
        <time>2021-10-16T07:28:38Z</time>
      </trkpt>
      <trkpt lat="45.50387" lon="6.97809">
        <ele>3163</ele>
        <time>2021-10-16T07:28:50Z</time>
      </trkpt>
      <trkpt lat="45.50393" lon="6.97816">
        <ele>3166</ele>
        <time>2021-10-16T07:29:14Z</time>
      </trkpt>
      <trkpt lat="45.50401" lon="6.97818">
        <ele>3172</ele>
        <time>2021-10-16T07:29:50Z</time>
      </trkpt>
      <trkpt lat="45.50404" lon="6.97832">
        <ele>3177</ele>
        <time>2021-10-16T07:30:26Z</time>
      </trkpt>
      <trkpt lat="45.50401" lon="6.97843">
        <ele>3179</ele>
        <time>2021-10-16T07:30:44Z</time>
      </trkpt>
      <trkpt lat="45.50408" lon="6.97849">
        <ele>3186</ele>
        <time>2021-10-16T07:31:32Z</time>
      </trkpt>
      <trkpt lat="45.50417" lon="6.97854">
        <ele>3189</ele>
        <time>2021-10-16T07:31:56Z</time>
      </trkpt>
      <trkpt lat="45.50423" lon="6.97864">
        <ele>3191</ele>
        <time>2021-10-16T07:32:14Z</time>
      </trkpt>
      <trkpt lat="45.50426" lon="6.97869">
        <ele>3195</ele>
        <time>2021-10-16T07:32:38Z</time>
      </trkpt>
      <trkpt lat="45.50434" lon="6.97875">
        <ele>3197</ele>
        <time>2021-10-16T07:33:02Z</time>
      </trkpt>
      <trkpt lat="45.50442" lon="6.97874">
        <ele>3200</ele>
        <time>2021-10-16T07:33:26Z</time>
      </trkpt>
      <trkpt lat="45.50448" lon="6.97882">
        <ele>3203</ele>
        <time>2021-10-16T07:33:50Z</time>
      </trkpt>
      <trkpt lat="45.50458" lon="6.97882">
        <ele>3206</ele>
        <time>2021-10-16T07:34:14Z</time>
      </trkpt>
      <trkpt lat="45.50465" lon="6.97883">
        <ele>3210</ele>
        <time>2021-10-16T07:34:44Z</time>
      </trkpt>
      <trkpt lat="45.50472" lon="6.97882">
        <ele>3213</ele>
        <time>2021-10-16T07:35:19Z</time>
      </trkpt>
      <trkpt lat="45.50472" lon="6.97895">
        <ele>3217</ele>
        <time>2021-10-16T07:35:43Z</time>
      </trkpt>
      <trkpt lat="45.50477" lon="6.97931">
        <ele>3244</ele>
        <time>2021-10-16T07:40:24Z</time>
      </trkpt>
      <trkpt lat="45.5047" lon="6.97938">
        <ele>3251</ele>
        <time>2021-10-16T07:41:35Z</time>
      </trkpt>
      <trkpt lat="45.50484" lon="6.97951">
        <ele>3253</ele>
        <time>2021-10-16T07:42:23Z</time>
      </trkpt>
      <trkpt lat="45.50488" lon="6.97953">
        <ele>3255</ele>
        <time>2021-10-16T07:42:35Z</time>
      </trkpt>
      <trkpt lat="45.50492" lon="6.97959">
        <ele>3255</ele>
        <time>2021-10-16T07:42:47Z</time>
      </trkpt>
      <trkpt lat="45.50497" lon="6.97963">
        <ele>3256</ele>
        <time>2021-10-16T07:42:59Z</time>
      </trkpt>
      <trkpt lat="45.50503" lon="6.9798">
        <ele>3258</ele>
        <time>2021-10-16T07:43:23Z</time>
      </trkpt>
      <trkpt lat="45.50505" lon="6.9799">
        <ele>3261</ele>
        <time>2021-10-16T07:43:41Z</time>
      </trkpt>
      <trkpt lat="45.50504" lon="6.97998">
        <ele>3262</ele>
        <time>2021-10-16T07:43:53Z</time>
      </trkpt>
      <trkpt lat="45.50505" lon="6.98008">
        <ele>3265</ele>
        <time>2021-10-16T07:44:16Z</time>
      </trkpt>
      <trkpt lat="45.50505" lon="6.98015">
        <ele>3267</ele>
        <time>2021-10-16T07:44:34Z</time>
      </trkpt>
      <trkpt lat="45.50503" lon="6.98023">
        <ele>3273</ele>
        <time>2021-10-16T07:46:17Z</time>
      </trkpt>
      <trkpt lat="45.50507" lon="6.9805">
        <ele>3275</ele>
        <time>2021-10-16T07:46:39Z</time>
      </trkpt>
      <trkpt lat="45.50509" lon="6.9806">
        <ele>3277</ele>
        <time>2021-10-16T07:46:58Z</time>
      </trkpt>
      <trkpt lat="45.50512" lon="6.98081">
        <ele>3281</ele>
        <time>2021-10-16T07:47:28Z</time>
      </trkpt>
      <trkpt lat="45.50514" lon="6.98095">
        <ele>3279</ele>
        <time>2021-10-16T07:47:46Z</time>
      </trkpt>
      <trkpt lat="45.50521" lon="6.98103">
        <ele>3278</ele>
        <time>2021-10-16T07:47:58Z</time>
      </trkpt>
      <trkpt lat="45.50524" lon="6.98115">
        <ele>3277</ele>
        <time>2021-10-16T07:48:12Z</time>
      </trkpt>
      <trkpt lat="45.5053" lon="6.98133">
        <ele>3276</ele>
        <time>2021-10-16T07:48:34Z</time>
      </trkpt>
      <trkpt lat="45.50537" lon="6.98153">
        <ele>3280</ele>
        <time>2021-10-16T07:49:07Z</time>
      </trkpt>
      <trkpt lat="45.50546" lon="6.98174">
        <ele>3283</ele>
        <time>2021-10-16T07:49:40Z</time>
      </trkpt>
      <trkpt lat="45.50545" lon="6.98185">
        <ele>3285</ele>
        <time>2021-10-16T07:49:58Z</time>
      </trkpt>
      <trkpt lat="45.50543" lon="6.98198">
        <ele>3288</ele>
        <time>2021-10-16T07:50:16Z</time>
      </trkpt>
      <trkpt lat="45.50542" lon="6.98207">
        <ele>3291</ele>
        <time>2021-10-16T07:50:39Z</time>
      </trkpt>
      <trkpt lat="45.50545" lon="6.98214">
        <ele>3292</ele>
        <time>2021-10-16T07:50:57Z</time>
      </trkpt>
      <trkpt lat="45.50545" lon="6.98222">
        <ele>3294</ele>
        <time>2021-10-16T07:51:09Z</time>
      </trkpt>
      <trkpt lat="45.50548" lon="6.98231">
        <ele>3295</ele>
        <time>2021-10-16T07:51:21Z</time>
      </trkpt>
      <trkpt lat="45.50548" lon="6.98239">
        <ele>3297</ele>
        <time>2021-10-16T07:51:33Z</time>
      </trkpt>
      <trkpt lat="45.50552" lon="6.98248">
        <ele>3299</ele>
        <time>2021-10-16T07:51:57Z</time>
      </trkpt>
      <trkpt lat="45.50555" lon="6.98258">
        <ele>3302</ele>
        <time>2021-10-16T07:52:21Z</time>
      </trkpt>
      <trkpt lat="45.50553" lon="6.98267">
        <ele>3304</ele>
        <time>2021-10-16T07:52:39Z</time>
      </trkpt>
      <trkpt lat="45.50558" lon="6.98288">
        <ele>3306</ele>
        <time>2021-10-16T07:53:05Z</time>
      </trkpt>
      <trkpt lat="45.50563" lon="6.98301">
        <ele>3307</ele>
        <time>2021-10-16T07:53:16Z</time>
      </trkpt>
      <trkpt lat="45.50565" lon="6.98308">
        <ele>3307</ele>
        <time>2021-10-16T07:53:22Z</time>
      </trkpt>
      <trkpt lat="45.50564" lon="6.98318">
        <ele>3307</ele>
        <time>2021-10-16T07:53:31Z</time>
      </trkpt>
      <trkpt lat="45.50569" lon="6.98331">
        <ele>3308</ele>
        <time>2021-10-16T07:53:43Z</time>
      </trkpt>
      <trkpt lat="45.50572" lon="6.9834">
        <ele>3308</ele>
        <time>2021-10-16T07:53:49Z</time>
      </trkpt>
      <trkpt lat="45.5057" lon="6.98353">
        <ele>3309</ele>
        <time>2021-10-16T07:54:03Z</time>
      </trkpt>
      <trkpt lat="45.50571" lon="6.98361">
        <ele>3309</ele>
        <time>2021-10-16T07:54:09Z</time>
      </trkpt>
      <trkpt lat="45.5057" lon="6.98372">
        <ele>3310</ele>
        <time>2021-10-16T07:54:18Z</time>
      </trkpt>
      <trkpt lat="45.5057" lon="6.98382">
        <ele>3311</ele>
        <time>2021-10-16T07:54:27Z</time>
      </trkpt>
      <trkpt lat="45.50574" lon="6.98394">
        <ele>3312</ele>
        <time>2021-10-16T07:54:36Z</time>
      </trkpt>
      <trkpt lat="45.50573" lon="6.98408">
        <ele>3313</ele>
        <time>2021-10-16T07:54:51Z</time>
      </trkpt>
      <trkpt lat="45.50569" lon="6.9843">
        <ele>3315</ele>
        <time>2021-10-16T07:55:08Z</time>
      </trkpt>
      <trkpt lat="45.50569" lon="6.98438">
        <ele>3315</ele>
        <time>2021-10-16T07:55:13Z</time>
      </trkpt>
      <trkpt lat="45.50569" lon="6.98459">
        <ele>3315</ele>
        <time>2021-10-16T07:55:34Z</time>
      </trkpt>
      <trkpt lat="45.50565" lon="6.98474">
        <ele>3315</ele>
        <time>2021-10-16T07:55:46Z</time>
      </trkpt>
      <trkpt lat="45.50563" lon="6.98495">
        <ele>3314</ele>
        <time>2021-10-16T07:56:02Z</time>
      </trkpt>
      <trkpt lat="45.5056" lon="6.98506">
        <ele>3315</ele>
        <time>2021-10-16T07:56:11Z</time>
      </trkpt>
      <trkpt lat="45.50558" lon="6.98529">
        <ele>3316</ele>
        <time>2021-10-16T07:56:28Z</time>
      </trkpt>
      <trkpt lat="45.50555" lon="6.98545">
        <ele>3315</ele>
        <time>2021-10-16T07:56:43Z</time>
      </trkpt>
      <trkpt lat="45.50549" lon="6.98553">
        <ele>3317</ele>
        <time>2021-10-16T07:56:55Z</time>
      </trkpt>
      <trkpt lat="45.50549" lon="6.98567">
        <ele>3317</ele>
        <time>2021-10-16T07:57:08Z</time>
      </trkpt>
      <trkpt lat="45.50555" lon="6.98585">
        <ele>3316</ele>
        <time>2021-10-16T07:57:22Z</time>
      </trkpt>
      <trkpt lat="45.50553" lon="6.98595">
        <ele>3315</ele>
        <time>2021-10-16T07:57:30Z</time>
      </trkpt>
      <trkpt lat="45.50556" lon="6.98605">
        <ele>3314</ele>
        <time>2021-10-16T07:57:38Z</time>
      </trkpt>
      <trkpt lat="45.50556" lon="6.98612">
        <ele>3313</ele>
        <time>2021-10-16T07:57:46Z</time>
      </trkpt>
      <trkpt lat="45.50559" lon="6.98619">
        <ele>3312</ele>
        <time>2021-10-16T07:57:51Z</time>
      </trkpt>
      <trkpt lat="45.50557" lon="6.9863">
        <ele>3311</ele>
        <time>2021-10-16T07:58:00Z</time>
      </trkpt>
      <trkpt lat="45.50555" lon="6.98641">
        <ele>3311</ele>
        <time>2021-10-16T07:58:07Z</time>
      </trkpt>
      <trkpt lat="45.50552" lon="6.98649">
        <ele>3312</ele>
        <time>2021-10-16T07:58:13Z</time>
      </trkpt>
      <trkpt lat="45.50549" lon="6.98657">
        <ele>3313</ele>
        <time>2021-10-16T07:58:23Z</time>
      </trkpt>
      <trkpt lat="45.50545" lon="6.9869">
        <ele>3317</ele>
        <time>2021-10-16T07:58:59Z</time>
      </trkpt>
      <trkpt lat="45.50544" lon="6.98705">
        <ele>3318</ele>
        <time>2021-10-16T07:59:11Z</time>
      </trkpt>
      <trkpt lat="45.50539" lon="6.98723">
        <ele>3320</ele>
        <time>2021-10-16T07:59:31Z</time>
      </trkpt>
      <trkpt lat="45.50537" lon="6.98759">
        <ele>3325</ele>
        <time>2021-10-16T08:00:07Z</time>
      </trkpt>
      <trkpt lat="45.50532" lon="6.98781">
        <ele>3328</ele>
        <time>2021-10-16T08:00:34Z</time>
      </trkpt>
      <trkpt lat="45.50532" lon="6.9879">
        <ele>3328</ele>
        <time>2021-10-16T08:00:40Z</time>
      </trkpt>
      <trkpt lat="45.50531" lon="6.98801">
        <ele>3329</ele>
        <time>2021-10-16T08:00:55Z</time>
      </trkpt>
      <trkpt lat="45.50526" lon="6.98804">
        <ele>3331</ele>
        <time>2021-10-16T08:01:07Z</time>
      </trkpt>
      <trkpt lat="45.50524" lon="6.98798">
        <ele>3331</ele>
        <time>2021-10-16T08:03:37Z</time>
      </trkpt>
      <trkpt lat="45.50528" lon="6.98779">
        <ele>3329</ele>
        <time>2021-10-16T08:03:49Z</time>
      </trkpt>
      <trkpt lat="45.50528" lon="6.98772">
        <ele>3330</ele>
        <time>2021-10-16T08:03:55Z</time>
      </trkpt>
      <trkpt lat="45.50527" lon="6.98764">
        <ele>3329</ele>
        <time>2021-10-16T08:04:45Z</time>
      </trkpt>
      <trkpt lat="45.5053" lon="6.98795">
        <ele>3331</ele>
        <time>2021-10-16T08:05:18Z</time>
      </trkpt>
      <trkpt lat="45.50529" lon="6.98806">
        <ele>3332</ele>
        <time>2021-10-16T08:05:29Z</time>
      </trkpt>
      <trkpt lat="45.50526" lon="6.98809">
        <ele>3333</ele>
        <time>2021-10-16T08:06:23Z</time>
      </trkpt>
      <trkpt lat="45.50522" lon="6.98812">
        <ele>3337</ele>
        <time>2021-10-16T08:13:05Z</time>
      </trkpt>
      <trkpt lat="45.50529" lon="6.98836">
        <ele>3340</ele>
        <time>2021-10-16T08:16:36Z</time>
      </trkpt>
      <trkpt lat="45.50532" lon="6.98879">
        <ele>3346</ele>
        <time>2021-10-16T08:17:30Z</time>
      </trkpt>
      <trkpt lat="45.50536" lon="6.98899">
        <ele>3349</ele>
        <time>2021-10-16T08:17:51Z</time>
      </trkpt>
      <trkpt lat="45.50537" lon="6.98931">
        <ele>3350</ele>
        <time>2021-10-16T08:18:24Z</time>
      </trkpt>
      <trkpt lat="45.5054" lon="6.98954">
        <ele>3349</ele>
        <time>2021-10-16T08:18:48Z</time>
      </trkpt>
      <trkpt lat="45.50542" lon="6.98995">
        <ele>3359</ele>
        <time>2021-10-16T08:19:53Z</time>
      </trkpt>
      <trkpt lat="45.50537" lon="6.99018">
        <ele>3369</ele>
        <time>2021-10-16T08:21:23Z</time>
      </trkpt>
      <trkpt lat="45.50537" lon="6.99039">
        <ele>3373</ele>
        <time>2021-10-16T08:21:53Z</time>
      </trkpt>
      <trkpt lat="45.50537" lon="6.99062">
        <ele>3378</ele>
        <time>2021-10-16T08:22:40Z</time>
      </trkpt>
      <trkpt lat="45.5054" lon="6.99083">
        <ele>3380</ele>
        <time>2021-10-16T08:23:04Z</time>
      </trkpt>
      <trkpt lat="45.50541" lon="6.99115">
        <ele>3385</ele>
        <time>2021-10-16T08:23:49Z</time>
      </trkpt>
      <trkpt lat="45.50544" lon="6.99137">
        <ele>3390</ele>
        <time>2021-10-16T08:24:27Z</time>
      </trkpt>
      <trkpt lat="45.50544" lon="6.99173">
        <ele>3402</ele>
        <time>2021-10-16T08:26:21Z</time>
      </trkpt>
      <trkpt lat="45.50551" lon="6.99191">
        <ele>3409</ele>
        <time>2021-10-16T08:27:21Z</time>
      </trkpt>
      <trkpt lat="45.50556" lon="6.99211">
        <ele>3414</ele>
        <time>2021-10-16T08:28:03Z</time>
      </trkpt>
      <trkpt lat="45.50556" lon="6.99234">
        <ele>3421</ele>
        <time>2021-10-16T08:29:09Z</time>
      </trkpt>
      <trkpt lat="45.50555" lon="6.99257">
        <ele>3425</ele>
        <time>2021-10-16T08:29:57Z</time>
      </trkpt>
      <trkpt lat="45.50557" lon="6.99285">
        <ele>3440</ele>
        <time>2021-10-16T08:31:49Z</time>
      </trkpt>
      <trkpt lat="45.50561" lon="6.99307">
        <ele>3451</ele>
        <time>2021-10-16T08:33:18Z</time>
      </trkpt>
      <trkpt lat="45.50566" lon="6.99328">
        <ele>3462</ele>
        <time>2021-10-16T08:34:48Z</time>
      </trkpt>
      <trkpt lat="45.50575" lon="6.9936">
        <ele>3472</ele>
        <time>2021-10-16T08:36:48Z</time>
      </trkpt>
      <trkpt lat="45.50573" lon="6.99385">
        <ele>3477</ele>
        <time>2021-10-16T08:37:48Z</time>
      </trkpt>
      <trkpt lat="45.50571" lon="6.99405">
        <ele>3483</ele>
        <time>2021-10-16T08:38:42Z</time>
      </trkpt>
      <trkpt lat="45.50569" lon="6.99425">
        <ele>3489</ele>
        <time>2021-10-16T08:39:46Z</time>
      </trkpt>
      <trkpt lat="45.50574" lon="6.9945">
        <ele>3496</ele>
        <time>2021-10-16T08:41:10Z</time>
      </trkpt>
      <trkpt lat="45.50568" lon="6.99468">
        <ele>3506</ele>
        <time>2021-10-16T08:43:16Z</time>
      </trkpt>
      <trkpt lat="45.50568" lon="6.99495">
        <ele>3513</ele>
        <time>2021-10-16T08:44:54Z</time>
      </trkpt>
      <trkpt lat="45.50566" lon="6.99521">
        <ele>3516</ele>
        <time>2021-10-16T08:45:25Z</time>
      </trkpt>
      <trkpt lat="45.50557" lon="6.99536">
        <ele>3523</ele>
        <time>2021-10-16T08:46:36Z</time>
      </trkpt>
      <trkpt lat="45.50553" lon="6.99558">
        <ele>3526</ele>
        <time>2021-10-16T08:47:06Z</time>
      </trkpt>
      <trkpt lat="45.50545" lon="6.99575">
        <ele>3532</ele>
        <time>2021-10-16T08:48:12Z</time>
      </trkpt>
      <trkpt lat="45.50538" lon="6.99596">
        <ele>3542</ele>
        <time>2021-10-16T08:49:43Z</time>
      </trkpt>
      <trkpt lat="45.50545" lon="6.99617">
        <ele>3549</ele>
        <time>2021-10-16T08:51:37Z</time>
      </trkpt>
      <trkpt lat="45.50548" lon="6.99638">
        <ele>3559</ele>
        <time>2021-10-16T08:53:48Z</time>
      </trkpt>
      <trkpt lat="45.50549" lon="6.9966">
        <ele>3567</ele>
        <time>2021-10-16T08:55:18Z</time>
      </trkpt>
      <trkpt lat="45.5055" lon="6.9968">
        <ele>3576</ele>
        <time>2021-10-16T08:57:18Z</time>
      </trkpt>
      <trkpt lat="45.50542" lon="6.99698">
        <ele>3587</ele>
        <time>2021-10-16T08:59:06Z</time>
      </trkpt>
      <trkpt lat="45.50535" lon="6.9972">
        <ele>3596</ele>
        <time>2021-10-16T09:00:51Z</time>
      </trkpt>
      <trkpt lat="45.50546" lon="6.99739">
        <ele>3605</ele>
        <time>2021-10-16T09:02:14Z</time>
      </trkpt>
      <trkpt lat="45.50541" lon="6.99757">
        <ele>3612</ele>
        <time>2021-10-16T09:03:44Z</time>
      </trkpt>
      <trkpt lat="45.50548" lon="6.99775">
        <ele>3619</ele>
        <time>2021-10-16T09:04:50Z</time>
      </trkpt>
      <trkpt lat="45.50538" lon="6.9979">
        <ele>3628</ele>
        <time>2021-10-16T09:06:14Z</time>
      </trkpt>
      <trkpt lat="45.50534" lon="6.99811">
        <ele>3637</ele>
        <time>2021-10-16T09:08:12Z</time>
      </trkpt>
      <trkpt lat="45.50526" lon="6.9983">
        <ele>3651</ele>
        <time>2021-10-16T09:10:56Z</time>
      </trkpt>
      <trkpt lat="45.50525" lon="6.99849">
        <ele>3656</ele>
        <time>2021-10-16T09:11:56Z</time>
      </trkpt>
      <trkpt lat="45.50508" lon="6.99852">
        <ele>3671</ele>
        <time>2021-10-16T09:14:30Z</time>
      </trkpt>
      <trkpt lat="45.50516" lon="6.99874">
        <ele>3676</ele>
        <time>2021-10-16T09:15:14Z</time>
      </trkpt>
      <trkpt lat="45.50514" lon="6.99899">
        <ele>3681</ele>
        <time>2021-10-16T09:16:14Z</time>
      </trkpt>
      <trkpt lat="45.50517" lon="6.99921">
        <ele>3694</ele>
        <time>2021-10-16T09:18:31Z</time>
      </trkpt>
      <trkpt lat="45.50512" lon="6.99941">
        <ele>3704</ele>
        <time>2021-10-16T09:20:17Z</time>
      </trkpt>
      <trkpt lat="45.50515" lon="6.99962">
        <ele>3711</ele>
        <time>2021-10-16T09:21:50Z</time>
      </trkpt>
      <trkpt lat="45.50507" lon="6.9998">
        <ele>3723</ele>
        <time>2021-10-16T09:24:01Z</time>
      </trkpt>
      <trkpt lat="45.50499" lon="6.99992">
        <ele>3731</ele>
        <time>2021-10-16T09:26:01Z</time>
      </trkpt>
      <trkpt lat="45.50503" lon="6.99986">
        <ele>3732</ele>
        <time>2021-10-16T09:29:06Z</time>
      </trkpt>
      <trkpt lat="45.50494" lon="6.99985">
        <ele>3732</ele>
        <time>2021-10-16T09:29:18Z</time>
      </trkpt>
      <trkpt lat="45.50486" lon="6.99986">
        <ele>3730</ele>
        <time>2021-10-16T09:29:42Z</time>
      </trkpt>
      <trkpt lat="45.50484" lon="6.99982">
        <ele>3732</ele>
        <time>2021-10-16T09:30:53Z</time>
      </trkpt>
      <trkpt lat="45.50491" lon="6.99985">
        <ele>3734</ele>
        <time>2021-10-16T09:32:05Z</time>
      </trkpt>
      <trkpt lat="45.50495" lon="6.99985">
        <ele>3734</ele>
        <time>2021-10-16T09:32:17Z</time>
      </trkpt>
      <trkpt lat="45.50492" lon="6.99987">
        <ele>3743</ele>
        <time>2021-10-16T09:38:38Z</time>
      </trkpt>
      <trkpt lat="45.50496" lon="6.99995">
        <ele>3739</ele>
        <time>2021-10-16T09:39:56Z</time>
      </trkpt>
      <trkpt lat="45.50499" lon="6.9999">
        <ele>3739</ele>
        <time>2021-10-16T09:40:32Z</time>
      </trkpt>
      <trkpt lat="45.50499" lon="6.99988">
        <ele>3740</ele>
        <time>2021-10-16T09:42:08Z</time>
      </trkpt>
      <trkpt lat="45.50499" lon="6.99988">
        <ele>3746</ele>
        <time>2021-10-16T09:51:53Z</time>
      </trkpt>
      <trkpt lat="45.50504" lon="6.99968">
        <ele>3750</ele>
        <time>2021-10-16T09:54:11Z</time>
      </trkpt>
      <trkpt lat="45.50508" lon="6.99945">
        <ele>3747</ele>
        <time>2021-10-16T09:54:19Z</time>
      </trkpt>
      <trkpt lat="45.50498" lon="6.99927">
        <ele>3744</ele>
        <time>2021-10-16T09:54:30Z</time>
      </trkpt>
      <trkpt lat="45.50497" lon="6.99934">
        <ele>3746</ele>
        <time>2021-10-16T09:56:34Z</time>
      </trkpt>
      <trkpt lat="45.50501" lon="6.99967">
        <ele>3745</ele>
        <time>2021-10-16T09:57:28Z</time>
      </trkpt>
      <trkpt lat="45.50501" lon="6.99975">
        <ele>3747</ele>
        <time>2021-10-16T10:02:30Z</time>
      </trkpt>
      <trkpt lat="45.505" lon="6.99983">
        <ele>3748</ele>
        <time>2021-10-16T10:03:02Z</time>
      </trkpt>
      <trkpt lat="45.50495" lon="6.99989">
        <ele>3747</ele>
        <time>2021-10-16T10:07:57Z</time>
      </trkpt>
      <trkpt lat="45.50498" lon="6.99989">
        <ele>3761</ele>
        <time>2021-10-16T10:14:26Z</time>
      </trkpt>
      <trkpt lat="45.50495" lon="6.99988">
        <ele>3751</ele>
        <time>2021-10-16T10:28:14Z</time>
      </trkpt>
      <trkpt lat="45.50495" lon="6.99983">
        <ele>3751</ele>
        <time>2021-10-16T10:33:24Z</time>
      </trkpt>
      <trkpt lat="45.50495" lon="6.99985">
        <ele>3752</ele>
        <time>2021-10-16T10:38:47Z</time>
      </trkpt>
      <trkpt lat="45.50502" lon="6.99975">
        <ele>3745</ele>
        <time>2021-10-16T10:51:16Z</time>
      </trkpt>
      <trkpt lat="45.50509" lon="6.99954">
        <ele>3732</ele>
        <time>2021-10-16T10:53:23Z</time>
      </trkpt>
      <trkpt lat="45.50511" lon="6.99934">
        <ele>3724</ele>
        <time>2021-10-16T10:54:25Z</time>
      </trkpt>
      <trkpt lat="45.50514" lon="6.99921">
        <ele>3717</ele>
        <time>2021-10-16T10:55:07Z</time>
      </trkpt>
      <trkpt lat="45.50509" lon="6.99907">
        <ele>3710</ele>
        <time>2021-10-16T10:55:39Z</time>
      </trkpt>
      <trkpt lat="45.50517" lon="6.99899">
        <ele>3706</ele>
        <time>2021-10-16T10:56:03Z</time>
      </trkpt>
      <trkpt lat="45.50512" lon="6.99892">
        <ele>3703</ele>
        <time>2021-10-16T10:56:15Z</time>
      </trkpt>
      <trkpt lat="45.50508" lon="6.99885">
        <ele>3701</ele>
        <time>2021-10-16T10:56:33Z</time>
      </trkpt>
      <trkpt lat="45.50513" lon="6.99878">
        <ele>3698</ele>
        <time>2021-10-16T10:56:51Z</time>
      </trkpt>
      <trkpt lat="45.50509" lon="6.99873">
        <ele>3695</ele>
        <time>2021-10-16T10:57:03Z</time>
      </trkpt>
      <trkpt lat="45.50503" lon="6.99871">
        <ele>3693</ele>
        <time>2021-10-16T10:57:15Z</time>
      </trkpt>
      <trkpt lat="45.50504" lon="6.99857">
        <ele>3685</ele>
        <time>2021-10-16T10:57:51Z</time>
      </trkpt>
      <trkpt lat="45.50512" lon="6.99851">
        <ele>3683</ele>
        <time>2021-10-16T10:58:03Z</time>
      </trkpt>
      <trkpt lat="45.50522" lon="6.99845">
        <ele>3677</ele>
        <time>2021-10-16T10:58:33Z</time>
      </trkpt>
      <trkpt lat="45.50526" lon="6.99836">
        <ele>3674</ele>
        <time>2021-10-16T10:58:51Z</time>
      </trkpt>
      <trkpt lat="45.50522" lon="6.99825">
        <ele>3672</ele>
        <time>2021-10-16T10:59:03Z</time>
      </trkpt>
      <trkpt lat="45.50515" lon="6.99819">
        <ele>3666</ele>
        <time>2021-10-16T10:59:39Z</time>
      </trkpt>
      <trkpt lat="45.50518" lon="6.99808">
        <ele>3660</ele>
        <time>2021-10-16T11:00:13Z</time>
      </trkpt>
      <trkpt lat="45.50526" lon="6.99803">
        <ele>3657</ele>
        <time>2021-10-16T11:00:28Z</time>
      </trkpt>
      <trkpt lat="45.50528" lon="6.99796">
        <ele>3653</ele>
        <time>2021-10-16T11:00:48Z</time>
      </trkpt>
      <trkpt lat="45.50533" lon="6.99787">
        <ele>3646</ele>
        <time>2021-10-16T11:01:24Z</time>
      </trkpt>
      <trkpt lat="45.50539" lon="6.99781">
        <ele>3641</ele>
        <time>2021-10-16T11:02:00Z</time>
      </trkpt>
      <trkpt lat="45.50545" lon="6.99778">
        <ele>3638</ele>
        <time>2021-10-16T11:02:12Z</time>
      </trkpt>
      <trkpt lat="45.50538" lon="6.99756">
        <ele>3630</ele>
        <time>2021-10-16T11:02:54Z</time>
      </trkpt>
      <trkpt lat="45.50546" lon="6.99747">
        <ele>3626</ele>
        <time>2021-10-16T11:03:14Z</time>
      </trkpt>
      <trkpt lat="45.50538" lon="6.99724">
        <ele>3615</ele>
        <time>2021-10-16T11:04:10Z</time>
      </trkpt>
      <trkpt lat="45.50536" lon="6.997">
        <ele>3606</ele>
        <time>2021-10-16T11:04:52Z</time>
      </trkpt>
      <trkpt lat="45.50536" lon="6.99678">
        <ele>3596</ele>
        <time>2021-10-16T11:05:46Z</time>
      </trkpt>
      <trkpt lat="45.50538" lon="6.99657">
        <ele>3586</ele>
        <time>2021-10-16T11:06:46Z</time>
      </trkpt>
      <trkpt lat="45.50539" lon="6.99635">
        <ele>3575</ele>
        <time>2021-10-16T11:08:03Z</time>
      </trkpt>
      <trkpt lat="45.50552" lon="6.99605">
        <ele>3554</ele>
        <time>2021-10-16T11:10:43Z</time>
      </trkpt>
      <trkpt lat="45.50546" lon="6.99581">
        <ele>3546</ele>
        <time>2021-10-16T11:11:25Z</time>
      </trkpt>
      <trkpt lat="45.50556" lon="6.99565">
        <ele>3542</ele>
        <time>2021-10-16T11:12:55Z</time>
      </trkpt>
      <trkpt lat="45.50565" lon="6.99519">
        <ele>3535</ele>
        <time>2021-10-16T11:14:35Z</time>
      </trkpt>
      <trkpt lat="45.50568" lon="6.99498">
        <ele>3533</ele>
        <time>2021-10-16T11:15:13Z</time>
      </trkpt>
      <trkpt lat="45.50571" lon="6.99477">
        <ele>3523</ele>
        <time>2021-10-16T11:16:30Z</time>
      </trkpt>
      <trkpt lat="45.5057" lon="6.99458">
        <ele>3514</ele>
        <time>2021-10-16T11:17:42Z</time>
      </trkpt>
      <trkpt lat="45.5057" lon="6.99433">
        <ele>3506</ele>
        <time>2021-10-16T11:18:30Z</time>
      </trkpt>
      <trkpt lat="45.50568" lon="6.99401">
        <ele>3496</ele>
        <time>2021-10-16T11:20:00Z</time>
      </trkpt>
      <trkpt lat="45.50564" lon="6.99372">
        <ele>3484</ele>
        <time>2021-10-16T11:21:25Z</time>
      </trkpt>
      <trkpt lat="45.50566" lon="6.9935">
        <ele>3479</ele>
        <time>2021-10-16T11:21:47Z</time>
      </trkpt>
      <trkpt lat="45.50555" lon="6.99331">
        <ele>3473</ele>
        <time>2021-10-16T11:22:19Z</time>
      </trkpt>
      <trkpt lat="45.50554" lon="6.99308">
        <ele>3463</ele>
        <time>2021-10-16T11:23:17Z</time>
      </trkpt>
      <trkpt lat="45.50548" lon="6.99289">
        <ele>3450</ele>
        <time>2021-10-16T11:25:11Z</time>
      </trkpt>
      <trkpt lat="45.50541" lon="6.99272">
        <ele>3445</ele>
        <time>2021-10-16T11:25:43Z</time>
      </trkpt>
      <trkpt lat="45.5055" lon="6.99244">
        <ele>3434</ele>
        <time>2021-10-16T11:26:33Z</time>
      </trkpt>
      <trkpt lat="45.50543" lon="6.99238">
        <ele>3429</ele>
        <time>2021-10-16T11:26:52Z</time>
      </trkpt>
      <trkpt lat="45.50542" lon="6.99222">
        <ele>3426</ele>
        <time>2021-10-16T11:27:02Z</time>
      </trkpt>
      <trkpt lat="45.50538" lon="6.99214">
        <ele>3424</ele>
        <time>2021-10-16T11:27:13Z</time>
      </trkpt>
      <trkpt lat="45.50536" lon="6.99184">
        <ele>3418</ele>
        <time>2021-10-16T11:27:41Z</time>
      </trkpt>
      <trkpt lat="45.50537" lon="6.99176">
        <ele>3417</ele>
        <time>2021-10-16T11:30:52Z</time>
      </trkpt>
      <trkpt lat="45.5054" lon="6.99166">
        <ele>3416</ele>
        <time>2021-10-16T11:31:34Z</time>
      </trkpt>
      <trkpt lat="45.50538" lon="6.99158">
        <ele>3411</ele>
        <time>2021-10-16T11:32:04Z</time>
      </trkpt>
      <trkpt lat="45.50536" lon="6.9915">
        <ele>3409</ele>
        <time>2021-10-16T11:32:34Z</time>
      </trkpt>
      <trkpt lat="45.50533" lon="6.99127">
        <ele>3403</ele>
        <time>2021-10-16T11:33:07Z</time>
      </trkpt>
      <trkpt lat="45.50534" lon="6.99108">
        <ele>3399</ele>
        <time>2021-10-16T11:33:22Z</time>
      </trkpt>
      <trkpt lat="45.50531" lon="6.99087">
        <ele>3397</ele>
        <time>2021-10-16T11:33:36Z</time>
      </trkpt>
      <trkpt lat="45.50529" lon="6.99075">
        <ele>3393</ele>
        <time>2021-10-16T11:33:50Z</time>
      </trkpt>
      <trkpt lat="45.50532" lon="6.99062">
        <ele>3389</ele>
        <time>2021-10-16T11:34:08Z</time>
      </trkpt>
      <trkpt lat="45.50538" lon="6.99052">
        <ele>3385</ele>
        <time>2021-10-16T11:34:26Z</time>
      </trkpt>
      <trkpt lat="45.50535" lon="6.99043">
        <ele>3382</ele>
        <time>2021-10-16T11:34:33Z</time>
      </trkpt>
      <trkpt lat="45.50532" lon="6.99036">
        <ele>3383</ele>
        <time>2021-10-16T11:34:39Z</time>
      </trkpt>
      <trkpt lat="45.50533" lon="6.99026">
        <ele>3379</ele>
        <time>2021-10-16T11:34:58Z</time>
      </trkpt>
      <trkpt lat="45.50537" lon="6.99017">
        <ele>3374</ele>
        <time>2021-10-16T11:35:16Z</time>
      </trkpt>
      <trkpt lat="45.50534" lon="6.98994">
        <ele>3370</ele>
        <time>2021-10-16T11:35:40Z</time>
      </trkpt>
      <trkpt lat="45.50533" lon="6.98978">
        <ele>3367</ele>
        <time>2021-10-16T11:35:56Z</time>
      </trkpt>
      <trkpt lat="45.50534" lon="6.98967">
        <ele>3366</ele>
        <time>2021-10-16T11:36:04Z</time>
      </trkpt>
      <trkpt lat="45.50529" lon="6.98943">
        <ele>3366</ele>
        <time>2021-10-16T11:36:30Z</time>
      </trkpt>
      <trkpt lat="45.50529" lon="6.98933">
        <ele>3365</ele>
        <time>2021-10-16T11:36:38Z</time>
      </trkpt>
      <trkpt lat="45.50526" lon="6.9892">
        <ele>3365</ele>
        <time>2021-10-16T11:36:44Z</time>
      </trkpt>
      <trkpt lat="45.50525" lon="6.9891">
        <ele>3365</ele>
        <time>2021-10-16T11:36:48Z</time>
      </trkpt>
      <trkpt lat="45.50529" lon="6.98885">
        <ele>3362</ele>
        <time>2021-10-16T11:37:03Z</time>
      </trkpt>
      <trkpt lat="45.50525" lon="6.98865">
        <ele>3357</ele>
        <time>2021-10-16T11:37:25Z</time>
      </trkpt>
      <trkpt lat="45.50526" lon="6.98825">
        <ele>3355</ele>
        <time>2021-10-16T11:37:49Z</time>
      </trkpt>
      <trkpt lat="45.50527" lon="6.98817">
        <ele>3355</ele>
        <time>2021-10-16T11:38:28Z</time>
      </trkpt>
      <trkpt lat="45.50527" lon="6.98812">
        <ele>3354</ele>
        <time>2021-10-16T11:38:59Z</time>
      </trkpt>
      <trkpt lat="45.50519" lon="6.9881">
        <ele>3352</ele>
        <time>2021-10-16T11:46:36Z</time>
      </trkpt>
      <trkpt lat="45.50527" lon="6.9881">
        <ele>3347</ele>
        <time>2021-10-16T11:46:59Z</time>
      </trkpt>
      <trkpt lat="45.50527" lon="6.98776">
        <ele>3346</ele>
        <time>2021-10-16T12:28:31Z</time>
      </trkpt>
      <trkpt lat="45.50527" lon="6.98772">
        <ele>3346</ele>
        <time>2021-10-16T12:28:32Z</time>
      </trkpt>
      <trkpt lat="45.50532" lon="6.98764">
        <ele>3344</ele>
        <time>2021-10-16T12:29:26Z</time>
      </trkpt>
      <trkpt lat="45.50527" lon="6.98754">
        <ele>3341</ele>
        <time>2021-10-16T12:29:44Z</time>
      </trkpt>
      <trkpt lat="45.50532" lon="6.98736">
        <ele>3340</ele>
        <time>2021-10-16T12:30:16Z</time>
      </trkpt>
      <trkpt lat="45.50534" lon="6.98725">
        <ele>3338</ele>
        <time>2021-10-16T12:30:20Z</time>
      </trkpt>
      <trkpt lat="45.50536" lon="6.98707">
        <ele>3337</ele>
        <time>2021-10-16T12:30:38Z</time>
      </trkpt>
      <trkpt lat="45.50544" lon="6.98673">
        <ele>3334</ele>
        <time>2021-10-16T12:31:03Z</time>
      </trkpt>
      <trkpt lat="45.50546" lon="6.98663">
        <ele>3331</ele>
        <time>2021-10-16T12:31:10Z</time>
      </trkpt>
      <trkpt lat="45.5055" lon="6.98642">
        <ele>3331</ele>
        <time>2021-10-16T12:31:23Z</time>
      </trkpt>
      <trkpt lat="45.50549" lon="6.98632">
        <ele>3331</ele>
        <time>2021-10-16T12:31:30Z</time>
      </trkpt>
      <trkpt lat="45.50547" lon="6.98621">
        <ele>3332</ele>
        <time>2021-10-16T12:31:38Z</time>
      </trkpt>
      <trkpt lat="45.50543" lon="6.98609">
        <ele>3333</ele>
        <time>2021-10-16T12:31:53Z</time>
      </trkpt>
      <trkpt lat="45.50545" lon="6.98594">
        <ele>3335</ele>
        <time>2021-10-16T12:32:17Z</time>
      </trkpt>
      <trkpt lat="45.50544" lon="6.98577">
        <ele>3334</ele>
        <time>2021-10-16T12:32:32Z</time>
      </trkpt>
      <trkpt lat="45.50544" lon="6.98566">
        <ele>3336</ele>
        <time>2021-10-16T12:32:50Z</time>
      </trkpt>
      <trkpt lat="45.50548" lon="6.98555">
        <ele>3335</ele>
        <time>2021-10-16T12:33:02Z</time>
      </trkpt>
      <trkpt lat="45.50549" lon="6.98537">
        <ele>3336</ele>
        <time>2021-10-16T12:33:16Z</time>
      </trkpt>
      <trkpt lat="45.50551" lon="6.98523">
        <ele>3333</ele>
        <time>2021-10-16T12:33:27Z</time>
      </trkpt>
      <trkpt lat="45.50554" lon="6.9851">
        <ele>3334</ele>
        <time>2021-10-16T12:33:37Z</time>
      </trkpt>
      <trkpt lat="45.50555" lon="6.98495">
        <ele>3334</ele>
        <time>2021-10-16T12:33:47Z</time>
      </trkpt>
      <trkpt lat="45.50557" lon="6.98485">
        <ele>3334</ele>
        <time>2021-10-16T12:33:54Z</time>
      </trkpt>
      <trkpt lat="45.50561" lon="6.98477">
        <ele>3335</ele>
        <time>2021-10-16T12:34:02Z</time>
      </trkpt>
      <trkpt lat="45.50561" lon="6.98464">
        <ele>3334</ele>
        <time>2021-10-16T12:34:12Z</time>
      </trkpt>
      <trkpt lat="45.50565" lon="6.98414">
        <ele>3331</ele>
        <time>2021-10-16T12:34:49Z</time>
      </trkpt>
      <trkpt lat="45.50564" lon="6.98385">
        <ele>3329</ele>
        <time>2021-10-16T12:35:10Z</time>
      </trkpt>
      <trkpt lat="45.50563" lon="6.98375">
        <ele>3329</ele>
        <time>2021-10-16T12:35:15Z</time>
      </trkpt>
      <trkpt lat="45.50565" lon="6.98363">
        <ele>3328</ele>
        <time>2021-10-16T12:35:22Z</time>
      </trkpt>
      <trkpt lat="45.50562" lon="6.98353">
        <ele>3328</ele>
        <time>2021-10-16T12:35:28Z</time>
      </trkpt>
      <trkpt lat="45.50557" lon="6.9833">
        <ele>3326</ele>
        <time>2021-10-16T12:35:46Z</time>
      </trkpt>
      <trkpt lat="45.50554" lon="6.9832">
        <ele>3325</ele>
        <time>2021-10-16T12:35:51Z</time>
      </trkpt>
      <trkpt lat="45.50552" lon="6.9831">
        <ele>3326</ele>
        <time>2021-10-16T12:36:00Z</time>
      </trkpt>
      <trkpt lat="45.50548" lon="6.98301">
        <ele>3325</ele>
        <time>2021-10-16T12:36:12Z</time>
      </trkpt>
      <trkpt lat="45.50549" lon="6.98283">
        <ele>3324</ele>
        <time>2021-10-16T12:36:30Z</time>
      </trkpt>
      <trkpt lat="45.50541" lon="6.98256">
        <ele>3318</ele>
        <time>2021-10-16T12:36:58Z</time>
      </trkpt>
      <trkpt lat="45.50538" lon="6.98228">
        <ele>3312</ele>
        <time>2021-10-16T12:37:18Z</time>
      </trkpt>
      <trkpt lat="45.50535" lon="6.98217">
        <ele>3312</ele>
        <time>2021-10-16T12:37:29Z</time>
      </trkpt>
      <trkpt lat="45.50535" lon="6.98192">
        <ele>3305</ele>
        <time>2021-10-16T12:37:52Z</time>
      </trkpt>
      <trkpt lat="45.50527" lon="6.9817">
        <ele>3302</ele>
        <time>2021-10-16T12:38:12Z</time>
      </trkpt>
      <trkpt lat="45.50527" lon="6.98157">
        <ele>3300</ele>
        <time>2021-10-16T12:38:26Z</time>
      </trkpt>
      <trkpt lat="45.50523" lon="6.98147">
        <ele>3299</ele>
        <time>2021-10-16T12:38:34Z</time>
      </trkpt>
      <trkpt lat="45.50522" lon="6.98136">
        <ele>3298</ele>
        <time>2021-10-16T12:38:42Z</time>
      </trkpt>
      <trkpt lat="45.50521" lon="6.98127">
        <ele>3297</ele>
        <time>2021-10-16T12:38:47Z</time>
      </trkpt>
      <trkpt lat="45.50518" lon="6.98117">
        <ele>3297</ele>
        <time>2021-10-16T12:39:01Z</time>
      </trkpt>
      <trkpt lat="45.50514" lon="6.98105">
        <ele>3299</ele>
        <time>2021-10-16T12:39:19Z</time>
      </trkpt>
      <trkpt lat="45.50509" lon="6.98094">
        <ele>3302</ele>
        <time>2021-10-16T12:39:43Z</time>
      </trkpt>
      <trkpt lat="45.50509" lon="6.98082">
        <ele>3301</ele>
        <time>2021-10-16T12:39:58Z</time>
      </trkpt>
      <trkpt lat="45.50503" lon="6.98065">
        <ele>3299</ele>
        <time>2021-10-16T12:40:13Z</time>
      </trkpt>
      <trkpt lat="45.50501" lon="6.98052">
        <ele>3298</ele>
        <time>2021-10-16T12:40:25Z</time>
      </trkpt>
      <trkpt lat="45.505" lon="6.98033">
        <ele>3295</ele>
        <time>2021-10-16T12:40:39Z</time>
      </trkpt>
      <trkpt lat="45.50502" lon="6.98024">
        <ele>3294</ele>
        <time>2021-10-16T12:40:55Z</time>
      </trkpt>
      <trkpt lat="45.505" lon="6.98014">
        <ele>3291</ele>
        <time>2021-10-16T12:41:13Z</time>
      </trkpt>
      <trkpt lat="45.50504" lon="6.98004">
        <ele>3288</ele>
        <time>2021-10-16T12:41:31Z</time>
      </trkpt>
      <trkpt lat="45.50511" lon="6.97996">
        <ele>3284</ele>
        <time>2021-10-16T12:41:49Z</time>
      </trkpt>
      <trkpt lat="45.50505" lon="6.97992">
        <ele>3280</ele>
        <time>2021-10-16T12:42:01Z</time>
      </trkpt>
      <trkpt lat="45.50504" lon="6.97981">
        <ele>3280</ele>
        <time>2021-10-16T12:42:19Z</time>
      </trkpt>
      <trkpt lat="45.505" lon="6.97971">
        <ele>3274</ele>
        <time>2021-10-16T12:42:37Z</time>
      </trkpt>
      <trkpt lat="45.50495" lon="6.97933">
        <ele>3269</ele>
        <time>2021-10-16T12:43:12Z</time>
      </trkpt>
      <trkpt lat="45.505" lon="6.9792">
        <ele>3264</ele>
        <time>2021-10-16T12:43:31Z</time>
      </trkpt>
      <trkpt lat="45.50496" lon="6.97913">
        <ele>3261</ele>
        <time>2021-10-16T12:44:01Z</time>
      </trkpt>
      <trkpt lat="45.5049" lon="6.9792">
        <ele>3268</ele>
        <time>2021-10-16T12:45:13Z</time>
      </trkpt>
      <trkpt lat="45.50495" lon="6.97928">
        <ele>3270</ele>
        <time>2021-10-16T12:45:31Z</time>
      </trkpt>
      <trkpt lat="45.50489" lon="6.97947">
        <ele>3275</ele>
        <time>2021-10-16T12:46:07Z</time>
      </trkpt>
      <trkpt lat="45.5048" lon="6.97947">
        <ele>3275</ele>
        <time>2021-10-16T12:46:31Z</time>
      </trkpt>
      <trkpt lat="45.50471" lon="6.97947">
        <ele>3278</ele>
        <time>2021-10-16T12:48:13Z</time>
      </trkpt>
      <trkpt lat="45.50465" lon="6.97922">
        <ele>3267</ele>
        <time>2021-10-16T12:51:16Z</time>
      </trkpt>
      <trkpt lat="45.50463" lon="6.97893">
        <ele>3238</ele>
        <time>2021-10-16T12:58:11Z</time>
      </trkpt>
      <trkpt lat="45.50429" lon="6.9788">
        <ele>3228</ele>
        <time>2021-10-16T12:58:52Z</time>
      </trkpt>
      <trkpt lat="45.50423" lon="6.9788">
        <ele>3228</ele>
        <time>2021-10-16T12:59:00Z</time>
      </trkpt>
      <trkpt lat="45.50418" lon="6.97874">
        <ele>3225</ele>
        <time>2021-10-16T12:59:12Z</time>
      </trkpt>
      <trkpt lat="45.504" lon="6.97861">
        <ele>3217</ele>
        <time>2021-10-16T12:59:48Z</time>
      </trkpt>
      <trkpt lat="45.50399" lon="6.9785">
        <ele>3212</ele>
        <time>2021-10-16T13:00:36Z</time>
      </trkpt>
      <trkpt lat="45.50399" lon="6.9784">
        <ele>3205</ele>
        <time>2021-10-16T13:01:01Z</time>
      </trkpt>
      <trkpt lat="45.50376" lon="6.97838">
        <ele>3198</ele>
        <time>2021-10-16T13:01:27Z</time>
      </trkpt>
      <trkpt lat="45.50373" lon="6.97827">
        <ele>3195</ele>
        <time>2021-10-16T13:01:40Z</time>
      </trkpt>
      <trkpt lat="45.50367" lon="6.97828">
        <ele>3194</ele>
        <time>2021-10-16T13:01:46Z</time>
      </trkpt>
      <trkpt lat="45.50366" lon="6.97819">
        <ele>3190</ele>
        <time>2021-10-16T13:01:59Z</time>
      </trkpt>
      <trkpt lat="45.50356" lon="6.97817">
        <ele>3182</ele>
        <time>2021-10-16T13:02:30Z</time>
      </trkpt>
      <trkpt lat="45.50351" lon="6.97821">
        <ele>3182</ele>
        <time>2021-10-16T13:02:35Z</time>
      </trkpt>
      <trkpt lat="45.50346" lon="6.9782">
        <ele>3172</ele>
        <time>2021-10-16T13:03:28Z</time>
      </trkpt>
      <trkpt lat="45.50342" lon="6.97812">
        <ele>3170</ele>
        <time>2021-10-16T13:03:40Z</time>
      </trkpt>
      <trkpt lat="45.50332" lon="6.97781">
        <ele>3163</ele>
        <time>2021-10-16T13:04:15Z</time>
      </trkpt>
      <trkpt lat="45.50326" lon="6.97774">
        <ele>3160</ele>
        <time>2021-10-16T13:04:27Z</time>
      </trkpt>
      <trkpt lat="45.50321" lon="6.9777">
        <ele>3153</ele>
        <time>2021-10-16T13:04:51Z</time>
      </trkpt>
      <trkpt lat="45.50312" lon="6.97769">
        <ele>3150</ele>
        <time>2021-10-16T13:05:10Z</time>
      </trkpt>
      <trkpt lat="45.50307" lon="6.97759">
        <ele>3147</ele>
        <time>2021-10-16T13:05:22Z</time>
      </trkpt>
      <trkpt lat="45.50309" lon="6.97752">
        <ele>3145</ele>
        <time>2021-10-16T13:05:29Z</time>
      </trkpt>
      <trkpt lat="45.50301" lon="6.97743">
        <ele>3141</ele>
        <time>2021-10-16T13:05:42Z</time>
      </trkpt>
      <trkpt lat="45.50296" lon="6.97736">
        <ele>3140</ele>
        <time>2021-10-16T13:05:50Z</time>
      </trkpt>
      <trkpt lat="45.50297" lon="6.97722">
        <ele>3138</ele>
        <time>2021-10-16T13:06:01Z</time>
      </trkpt>
      <trkpt lat="45.50293" lon="6.9771">
        <ele>3134</ele>
        <time>2021-10-16T13:06:13Z</time>
      </trkpt>
      <trkpt lat="45.50285" lon="6.97701">
        <ele>3131</ele>
        <time>2021-10-16T13:06:25Z</time>
      </trkpt>
      <trkpt lat="45.50277" lon="6.97697">
        <ele>3130</ele>
        <time>2021-10-16T13:06:33Z</time>
      </trkpt>
      <trkpt lat="45.50271" lon="6.97698">
        <ele>3130</ele>
        <time>2021-10-16T13:06:38Z</time>
      </trkpt>
      <trkpt lat="45.50267" lon="6.97697">
        <ele>3130</ele>
        <time>2021-10-16T13:08:16Z</time>
      </trkpt>
      <trkpt lat="45.50261" lon="6.97685">
        <ele>3127</ele>
        <time>2021-10-16T13:08:36Z</time>
      </trkpt>
      <trkpt lat="45.50259" lon="6.97677">
        <ele>3127</ele>
        <time>2021-10-16T13:08:41Z</time>
      </trkpt>
      <trkpt lat="45.50255" lon="6.9767">
        <ele>3126</ele>
        <time>2021-10-16T13:08:46Z</time>
      </trkpt>
      <trkpt lat="45.50253" lon="6.97663">
        <ele>3125</ele>
        <time>2021-10-16T13:08:51Z</time>
      </trkpt>
      <trkpt lat="45.50246" lon="6.97654">
        <ele>3122</ele>
        <time>2021-10-16T13:09:04Z</time>
      </trkpt>
      <trkpt lat="45.50233" lon="6.97629">
        <ele>3116</ele>
        <time>2021-10-16T13:09:27Z</time>
      </trkpt>
      <trkpt lat="45.50229" lon="6.97623">
        <ele>3116</ele>
        <time>2021-10-16T13:09:33Z</time>
      </trkpt>
      <trkpt lat="45.50227" lon="6.97619">
        <ele>3116</ele>
        <time>2021-10-16T13:09:36Z</time>
      </trkpt>
      <trkpt lat="45.50222" lon="6.97608">
        <ele>3116</ele>
        <time>2021-10-16T13:09:43Z</time>
      </trkpt>
      <trkpt lat="45.50212" lon="6.97588">
        <ele>3115</ele>
        <time>2021-10-16T13:09:59Z</time>
      </trkpt>
      <trkpt lat="45.50206" lon="6.97572">
        <ele>3113</ele>
        <time>2021-10-16T13:10:09Z</time>
      </trkpt>
      <trkpt lat="45.50198" lon="6.97556">
        <ele>3112</ele>
        <time>2021-10-16T13:10:20Z</time>
      </trkpt>
      <trkpt lat="45.50192" lon="6.97537">
        <ele>3113</ele>
        <time>2021-10-16T13:10:36Z</time>
      </trkpt>
      <trkpt lat="45.50188" lon="6.9753">
        <ele>3113</ele>
        <time>2021-10-16T13:10:41Z</time>
      </trkpt>
      <trkpt lat="45.50187" lon="6.97518">
        <ele>3115</ele>
        <time>2021-10-16T13:10:50Z</time>
      </trkpt>
      <trkpt lat="45.50186" lon="6.97508">
        <ele>3116</ele>
        <time>2021-10-16T13:10:59Z</time>
      </trkpt>
      <trkpt lat="45.50183" lon="6.97503">
        <ele>3116</ele>
        <time>2021-10-16T13:11:03Z</time>
      </trkpt>
      <trkpt lat="45.50182" lon="6.97498">
        <ele>3116</ele>
        <time>2021-10-16T13:11:08Z</time>
      </trkpt>
      <trkpt lat="45.50182" lon="6.97493">
        <ele>3117</ele>
        <time>2021-10-16T13:11:16Z</time>
      </trkpt>
      <trkpt lat="45.50179" lon="6.97481">
        <ele>3118</ele>
        <time>2021-10-16T13:11:28Z</time>
      </trkpt>
      <trkpt lat="45.50174" lon="6.97472">
        <ele>3119</ele>
        <time>2021-10-16T13:11:39Z</time>
      </trkpt>
      <trkpt lat="45.5017" lon="6.97465">
        <ele>3120</ele>
        <time>2021-10-16T13:11:52Z</time>
      </trkpt>
      <trkpt lat="45.50168" lon="6.97451">
        <ele>3122</ele>
        <time>2021-10-16T13:12:11Z</time>
      </trkpt>
      <trkpt lat="45.50166" lon="6.97444">
        <ele>3124</ele>
        <time>2021-10-16T13:12:22Z</time>
      </trkpt>
      <trkpt lat="45.50165" lon="6.97439">
        <ele>3124</ele>
        <time>2021-10-16T13:12:26Z</time>
      </trkpt>
      <trkpt lat="45.5016" lon="6.97429">
        <ele>3125</ele>
        <time>2021-10-16T13:12:39Z</time>
      </trkpt>
      <trkpt lat="45.50158" lon="6.97418">
        <ele>3125</ele>
        <time>2021-10-16T13:12:49Z</time>
      </trkpt>
      <trkpt lat="45.50147" lon="6.97393">
        <ele>3126</ele>
        <time>2021-10-16T13:13:15Z</time>
      </trkpt>
      <trkpt lat="45.50125" lon="6.97364">
        <ele>3127</ele>
        <time>2021-10-16T13:13:46Z</time>
      </trkpt>
      <trkpt lat="45.50106" lon="6.97342">
        <ele>3127</ele>
        <time>2021-10-16T13:14:08Z</time>
      </trkpt>
      <trkpt lat="45.50086" lon="6.97324">
        <ele>3126</ele>
        <time>2021-10-16T13:14:29Z</time>
      </trkpt>
      <trkpt lat="45.50074" lon="6.97312">
        <ele>3125</ele>
        <time>2021-10-16T13:14:42Z</time>
      </trkpt>
      <trkpt lat="45.5007" lon="6.97305">
        <ele>3124</ele>
        <time>2021-10-16T13:14:48Z</time>
      </trkpt>
      <trkpt lat="45.50065" lon="6.97301">
        <ele>3124</ele>
        <time>2021-10-16T13:14:53Z</time>
      </trkpt>
      <trkpt lat="45.50061" lon="6.97302">
        <ele>3123</ele>
        <time>2021-10-16T13:14:57Z</time>
      </trkpt>
      <trkpt lat="45.50054" lon="6.97297">
        <ele>3123</ele>
        <time>2021-10-16T13:15:06Z</time>
      </trkpt>
      <trkpt lat="45.5005" lon="6.97291">
        <ele>3123</ele>
        <time>2021-10-16T13:15:11Z</time>
      </trkpt>
      <trkpt lat="45.50016" lon="6.97263">
        <ele>3118</ele>
        <time>2021-10-16T13:15:47Z</time>
      </trkpt>
      <trkpt lat="45.5001" lon="6.97259">
        <ele>3117</ele>
        <time>2021-10-16T13:15:53Z</time>
      </trkpt>
      <trkpt lat="45.50008" lon="6.97251">
        <ele>3116</ele>
        <time>2021-10-16T13:15:59Z</time>
      </trkpt>
      <trkpt lat="45.49996" lon="6.97238">
        <ele>3111</ele>
        <time>2021-10-16T13:16:19Z</time>
      </trkpt>
      <trkpt lat="45.49994" lon="6.9723">
        <ele>3110</ele>
        <time>2021-10-16T13:16:25Z</time>
      </trkpt>
      <trkpt lat="45.49984" lon="6.97211">
        <ele>3105</ele>
        <time>2021-10-16T13:16:43Z</time>
      </trkpt>
      <trkpt lat="45.49982" lon="6.97202">
        <ele>3104</ele>
        <time>2021-10-16T13:16:50Z</time>
      </trkpt>
      <trkpt lat="45.49978" lon="6.97196">
        <ele>3103</ele>
        <time>2021-10-16T13:16:56Z</time>
      </trkpt>
      <trkpt lat="45.49975" lon="6.97187">
        <ele>3102</ele>
        <time>2021-10-16T13:17:03Z</time>
      </trkpt>
      <trkpt lat="45.49971" lon="6.97181">
        <ele>3100</ele>
        <time>2021-10-16T13:17:08Z</time>
      </trkpt>
      <trkpt lat="45.49968" lon="6.97174">
        <ele>3099</ele>
        <time>2021-10-16T13:17:14Z</time>
      </trkpt>
      <trkpt lat="45.49958" lon="6.97161">
        <ele>3096</ele>
        <time>2021-10-16T13:17:26Z</time>
      </trkpt>
      <trkpt lat="45.49954" lon="6.97148">
        <ele>3092</ele>
        <time>2021-10-16T13:17:40Z</time>
      </trkpt>
      <trkpt lat="45.49947" lon="6.97137">
        <ele>3089</ele>
        <time>2021-10-16T13:17:53Z</time>
      </trkpt>
      <trkpt lat="45.4994" lon="6.97131">
        <ele>3087</ele>
        <time>2021-10-16T13:18:02Z</time>
      </trkpt>
      <trkpt lat="45.49936" lon="6.97123">
        <ele>3085</ele>
        <time>2021-10-16T13:18:14Z</time>
      </trkpt>
      <trkpt lat="45.49935" lon="6.97113">
        <ele>3082</ele>
        <time>2021-10-16T13:18:26Z</time>
      </trkpt>
      <trkpt lat="45.49928" lon="6.97104">
        <ele>3078</ele>
        <time>2021-10-16T13:18:40Z</time>
      </trkpt>
      <trkpt lat="45.49926" lon="6.97094">
        <ele>3075</ele>
        <time>2021-10-16T13:18:52Z</time>
      </trkpt>
      <trkpt lat="45.49925" lon="6.97087">
        <ele>3072</ele>
        <time>2021-10-16T13:19:02Z</time>
      </trkpt>
      <trkpt lat="45.49921" lon="6.97072">
        <ele>3066</ele>
        <time>2021-10-16T13:19:22Z</time>
      </trkpt>
      <trkpt lat="45.49918" lon="6.97062">
        <ele>3062</ele>
        <time>2021-10-16T13:19:37Z</time>
      </trkpt>
      <trkpt lat="45.49916" lon="6.97054">
        <ele>3058</ele>
        <time>2021-10-16T13:19:52Z</time>
      </trkpt>
      <trkpt lat="45.49911" lon="6.97047">
        <ele>3054</ele>
        <time>2021-10-16T13:20:12Z</time>
      </trkpt>
      <trkpt lat="45.4991" lon="6.97039">
        <ele>3050</ele>
        <time>2021-10-16T13:20:32Z</time>
      </trkpt>
      <trkpt lat="45.49893" lon="6.97027">
        <ele>3040</ele>
        <time>2021-10-16T13:21:18Z</time>
      </trkpt>
      <trkpt lat="45.49886" lon="6.97026">
        <ele>3037</ele>
        <time>2021-10-16T13:21:33Z</time>
      </trkpt>
      <trkpt lat="45.49888" lon="6.9702">
        <ele>3036</ele>
        <time>2021-10-16T13:21:43Z</time>
      </trkpt>
      <trkpt lat="45.49888" lon="6.97015">
        <ele>3035</ele>
        <time>2021-10-16T13:21:47Z</time>
      </trkpt>
      <trkpt lat="45.4989" lon="6.97008">
        <ele>3033</ele>
        <time>2021-10-16T13:21:59Z</time>
      </trkpt>
      <trkpt lat="45.49887" lon="6.97003">
        <ele>3031</ele>
        <time>2021-10-16T13:22:09Z</time>
      </trkpt>
      <trkpt lat="45.49888" lon="6.96988">
        <ele>3023</ele>
        <time>2021-10-16T13:22:44Z</time>
      </trkpt>
      <trkpt lat="45.49893" lon="6.96987">
        <ele>3021</ele>
        <time>2021-10-16T13:23:04Z</time>
      </trkpt>
      <trkpt lat="45.49888" lon="6.96981">
        <ele>3016</ele>
        <time>2021-10-16T13:23:39Z</time>
      </trkpt>
      <trkpt lat="45.49889" lon="6.96972">
        <ele>3014</ele>
        <time>2021-10-16T13:23:54Z</time>
      </trkpt>
      <trkpt lat="45.49884" lon="6.96964">
        <ele>3011</ele>
        <time>2021-10-16T13:24:24Z</time>
      </trkpt>
      <trkpt lat="45.49877" lon="6.96946">
        <ele>3006</ele>
        <time>2021-10-16T13:24:50Z</time>
      </trkpt>
      <trkpt lat="45.49878" lon="6.96941">
        <ele>3005</ele>
        <time>2021-10-16T13:24:54Z</time>
      </trkpt>
      <trkpt lat="45.49878" lon="6.96933">
        <ele>3002</ele>
        <time>2021-10-16T13:25:11Z</time>
      </trkpt>
      <trkpt lat="45.49873" lon="6.96913">
        <ele>2998</ele>
        <time>2021-10-16T13:25:33Z</time>
      </trkpt>
      <trkpt lat="45.49867" lon="6.96899">
        <ele>2996</ele>
        <time>2021-10-16T13:25:46Z</time>
      </trkpt>
      <trkpt lat="45.49864" lon="6.96889">
        <ele>2994</ele>
        <time>2021-10-16T13:26:01Z</time>
      </trkpt>
      <trkpt lat="45.4986" lon="6.96881">
        <ele>2991</ele>
        <time>2021-10-16T13:26:13Z</time>
      </trkpt>
      <trkpt lat="45.49855" lon="6.96877">
        <ele>2989</ele>
        <time>2021-10-16T13:26:31Z</time>
      </trkpt>
      <trkpt lat="45.49851" lon="6.96871">
        <ele>2988</ele>
        <time>2021-10-16T13:26:38Z</time>
      </trkpt>
      <trkpt lat="45.49842" lon="6.96866">
        <ele>2986</ele>
        <time>2021-10-16T13:26:48Z</time>
      </trkpt>
      <trkpt lat="45.49839" lon="6.96856">
        <ele>2985</ele>
        <time>2021-10-16T13:26:58Z</time>
      </trkpt>
      <trkpt lat="45.49832" lon="6.96849">
        <ele>2983</ele>
        <time>2021-10-16T13:27:09Z</time>
      </trkpt>
      <trkpt lat="45.49818" lon="6.96841">
        <ele>2981</ele>
        <time>2021-10-16T13:27:30Z</time>
      </trkpt>
      <trkpt lat="45.49818" lon="6.9683">
        <ele>2978</ele>
        <time>2021-10-16T13:27:42Z</time>
      </trkpt>
      <trkpt lat="45.49809" lon="6.96827">
        <ele>2975</ele>
        <time>2021-10-16T13:27:55Z</time>
      </trkpt>
      <trkpt lat="45.49804" lon="6.96818">
        <ele>2974</ele>
        <time>2021-10-16T13:28:04Z</time>
      </trkpt>
      <trkpt lat="45.49802" lon="6.96809">
        <ele>2972</ele>
        <time>2021-10-16T13:28:12Z</time>
      </trkpt>
      <trkpt lat="45.49795" lon="6.96799">
        <ele>2970</ele>
        <time>2021-10-16T13:28:26Z</time>
      </trkpt>
      <trkpt lat="45.4979" lon="6.96793">
        <ele>2968</ele>
        <time>2021-10-16T13:28:33Z</time>
      </trkpt>
      <trkpt lat="45.49783" lon="6.9679">
        <ele>2968</ele>
        <time>2021-10-16T13:28:38Z</time>
      </trkpt>
      <trkpt lat="45.49779" lon="6.96786">
        <ele>2968</ele>
        <time>2021-10-16T13:28:44Z</time>
      </trkpt>
      <trkpt lat="45.49773" lon="6.96783">
        <ele>2968</ele>
        <time>2021-10-16T13:28:50Z</time>
      </trkpt>
      <trkpt lat="45.49769" lon="6.96773">
        <ele>2967</ele>
        <time>2021-10-16T13:28:59Z</time>
      </trkpt>
      <trkpt lat="45.49762" lon="6.96768">
        <ele>2966</ele>
        <time>2021-10-16T13:29:06Z</time>
      </trkpt>
      <trkpt lat="45.49757" lon="6.96764">
        <ele>2966</ele>
        <time>2021-10-16T13:29:11Z</time>
      </trkpt>
      <trkpt lat="45.49752" lon="6.96751">
        <ele>2964</ele>
        <time>2021-10-16T13:29:22Z</time>
      </trkpt>
      <trkpt lat="45.49744" lon="6.96743">
        <ele>2962</ele>
        <time>2021-10-16T13:29:34Z</time>
      </trkpt>
      <trkpt lat="45.49741" lon="6.96735">
        <ele>2960</ele>
        <time>2021-10-16T13:29:41Z</time>
      </trkpt>
      <trkpt lat="45.49737" lon="6.96729">
        <ele>2959</ele>
        <time>2021-10-16T13:29:46Z</time>
      </trkpt>
      <trkpt lat="45.49734" lon="6.96721">
        <ele>2957</ele>
        <time>2021-10-16T13:29:54Z</time>
      </trkpt>
      <trkpt lat="45.49727" lon="6.96708">
        <ele>2955</ele>
        <time>2021-10-16T13:30:04Z</time>
      </trkpt>
      <trkpt lat="45.49721" lon="6.96702">
        <ele>2955</ele>
        <time>2021-10-16T13:30:10Z</time>
      </trkpt>
      <trkpt lat="45.49716" lon="6.96698">
        <ele>2954</ele>
        <time>2021-10-16T13:30:14Z</time>
      </trkpt>
      <trkpt lat="45.49709" lon="6.96688">
        <ele>2953</ele>
        <time>2021-10-16T13:30:24Z</time>
      </trkpt>
      <trkpt lat="45.497" lon="6.96679">
        <ele>2951</ele>
        <time>2021-10-16T13:30:35Z</time>
      </trkpt>
      <trkpt lat="45.49689" lon="6.96663">
        <ele>2948</ele>
        <time>2021-10-16T13:30:51Z</time>
      </trkpt>
      <trkpt lat="45.49684" lon="6.96656">
        <ele>2944</ele>
        <time>2021-10-16T13:31:05Z</time>
      </trkpt>
      <trkpt lat="45.49679" lon="6.96645">
        <ele>2940</ele>
        <time>2021-10-16T13:31:25Z</time>
      </trkpt>
      <trkpt lat="45.49679" lon="6.96637">
        <ele>2937</ele>
        <time>2021-10-16T13:31:38Z</time>
      </trkpt>
      <trkpt lat="45.49673" lon="6.96631">
        <ele>2933</ele>
        <time>2021-10-16T13:31:50Z</time>
      </trkpt>
      <trkpt lat="45.49674" lon="6.96595">
        <ele>2925</ele>
        <time>2021-10-16T13:32:27Z</time>
      </trkpt>
      <trkpt lat="45.49676" lon="6.96586">
        <ele>2923</ele>
        <time>2021-10-16T13:32:36Z</time>
      </trkpt>
      <trkpt lat="45.49676" lon="6.96573">
        <ele>2920</ele>
        <time>2021-10-16T13:32:49Z</time>
      </trkpt>
      <trkpt lat="45.4967" lon="6.96575">
        <ele>2917</ele>
        <time>2021-10-16T13:33:00Z</time>
      </trkpt>
      <trkpt lat="45.49658" lon="6.9658">
        <ele>2914</ele>
        <time>2021-10-16T13:33:15Z</time>
      </trkpt>
      <trkpt lat="45.49654" lon="6.96574">
        <ele>2910</ele>
        <time>2021-10-16T13:33:33Z</time>
      </trkpt>
      <trkpt lat="45.4965" lon="6.96564">
        <ele>2905</ele>
        <time>2021-10-16T13:33:51Z</time>
      </trkpt>
      <trkpt lat="45.49645" lon="6.96563">
        <ele>2903</ele>
        <time>2021-10-16T13:34:03Z</time>
      </trkpt>
      <trkpt lat="45.49642" lon="6.96555">
        <ele>2900</ele>
        <time>2021-10-16T13:34:15Z</time>
      </trkpt>
      <trkpt lat="45.4964" lon="6.96541">
        <ele>2896</ele>
        <time>2021-10-16T13:34:28Z</time>
      </trkpt>
      <trkpt lat="45.4964" lon="6.96537">
        <ele>2894</ele>
        <time>2021-10-16T13:34:36Z</time>
      </trkpt>
      <trkpt lat="45.49636" lon="6.96543">
        <ele>2892</ele>
        <time>2021-10-16T13:34:41Z</time>
      </trkpt>
      <trkpt lat="45.49634" lon="6.96547">
        <ele>2892</ele>
        <time>2021-10-16T13:34:44Z</time>
      </trkpt>
      <trkpt lat="45.49628" lon="6.96536">
        <ele>2888</ele>
        <time>2021-10-16T13:34:57Z</time>
      </trkpt>
      <trkpt lat="45.49622" lon="6.96537">
        <ele>2886</ele>
        <time>2021-10-16T13:35:09Z</time>
      </trkpt>
      <trkpt lat="45.4962" lon="6.96541">
        <ele>2885</ele>
        <time>2021-10-16T13:35:11Z</time>
      </trkpt>
      <trkpt lat="45.49612" lon="6.96545">
        <ele>2883</ele>
        <time>2021-10-16T13:35:24Z</time>
      </trkpt>
      <trkpt lat="45.49607" lon="6.96542">
        <ele>2880</ele>
        <time>2021-10-16T13:35:37Z</time>
      </trkpt>
      <trkpt lat="45.496" lon="6.96547">
        <ele>2877</ele>
        <time>2021-10-16T13:35:48Z</time>
      </trkpt>
      <trkpt lat="45.49594" lon="6.96535">
        <ele>2873</ele>
        <time>2021-10-16T13:36:05Z</time>
      </trkpt>
      <trkpt lat="45.49593" lon="6.96519">
        <ele>2869</ele>
        <time>2021-10-16T13:36:19Z</time>
      </trkpt>
      <trkpt lat="45.49594" lon="6.96511">
        <ele>2868</ele>
        <time>2021-10-16T13:36:24Z</time>
      </trkpt>
      <trkpt lat="45.49593" lon="6.965">
        <ele>2867</ele>
        <time>2021-10-16T13:36:34Z</time>
      </trkpt>
      <trkpt lat="45.49593" lon="6.96488">
        <ele>2864</ele>
        <time>2021-10-16T13:36:46Z</time>
      </trkpt>
      <trkpt lat="45.4959" lon="6.96481">
        <ele>2862</ele>
        <time>2021-10-16T13:36:52Z</time>
      </trkpt>
      <trkpt lat="45.4959" lon="6.96473">
        <ele>2860</ele>
        <time>2021-10-16T13:36:58Z</time>
      </trkpt>
      <trkpt lat="45.49592" lon="6.96454">
        <ele>2857</ele>
        <time>2021-10-16T13:37:12Z</time>
      </trkpt>
      <trkpt lat="45.49594" lon="6.96445">
        <ele>2855</ele>
        <time>2021-10-16T13:37:18Z</time>
      </trkpt>
      <trkpt lat="45.49602" lon="6.96429">
        <ele>2854</ele>
        <time>2021-10-16T13:37:31Z</time>
      </trkpt>
      <trkpt lat="45.49604" lon="6.96405">
        <ele>2851</ele>
        <time>2021-10-16T13:37:47Z</time>
      </trkpt>
      <trkpt lat="45.49601" lon="6.96398">
        <ele>2850</ele>
        <time>2021-10-16T13:37:55Z</time>
      </trkpt>
      <trkpt lat="45.49601" lon="6.96392">
        <ele>2848</ele>
        <time>2021-10-16T13:38:00Z</time>
      </trkpt>
      <trkpt lat="45.49606" lon="6.96385">
        <ele>2846</ele>
        <time>2021-10-16T13:38:10Z</time>
      </trkpt>
      <trkpt lat="45.49611" lon="6.96376">
        <ele>2843</ele>
        <time>2021-10-16T13:38:21Z</time>
      </trkpt>
      <trkpt lat="45.49615" lon="6.96365">
        <ele>2839</ele>
        <time>2021-10-16T13:38:35Z</time>
      </trkpt>
      <trkpt lat="45.49615" lon="6.96351">
        <ele>2837</ele>
        <time>2021-10-16T13:38:46Z</time>
      </trkpt>
      <trkpt lat="45.49621" lon="6.96333">
        <ele>2832</ele>
        <time>2021-10-16T13:39:06Z</time>
      </trkpt>
      <trkpt lat="45.49629" lon="6.96323">
        <ele>2829</ele>
        <time>2021-10-16T13:39:20Z</time>
      </trkpt>
      <trkpt lat="45.49632" lon="6.96318">
        <ele>2827</ele>
        <time>2021-10-16T13:39:26Z</time>
      </trkpt>
      <trkpt lat="45.49641" lon="6.96304">
        <ele>2823</ele>
        <time>2021-10-16T13:39:46Z</time>
      </trkpt>
      <trkpt lat="45.49642" lon="6.96298">
        <ele>2821</ele>
        <time>2021-10-16T13:39:52Z</time>
      </trkpt>
      <trkpt lat="45.49646" lon="6.96296">
        <ele>2820</ele>
        <time>2021-10-16T13:39:57Z</time>
      </trkpt>
      <trkpt lat="45.49643" lon="6.96278">
        <ele>2815</ele>
        <time>2021-10-16T13:40:18Z</time>
      </trkpt>
      <trkpt lat="45.49648" lon="6.96262">
        <ele>2811</ele>
        <time>2021-10-16T13:40:36Z</time>
      </trkpt>
      <trkpt lat="45.49643" lon="6.96255">
        <ele>2808</ele>
        <time>2021-10-16T13:40:48Z</time>
      </trkpt>
      <trkpt lat="45.49646" lon="6.96245">
        <ele>2804</ele>
        <time>2021-10-16T13:41:03Z</time>
      </trkpt>
      <trkpt lat="45.49644" lon="6.96237">
        <ele>2801</ele>
        <time>2021-10-16T13:41:15Z</time>
      </trkpt>
      <trkpt lat="45.49639" lon="6.96236">
        <ele>2799</ele>
        <time>2021-10-16T13:41:21Z</time>
      </trkpt>
      <trkpt lat="45.49638" lon="6.96229">
        <ele>2796</ele>
        <time>2021-10-16T13:41:33Z</time>
      </trkpt>
      <trkpt lat="45.49638" lon="6.96221">
        <ele>2792</ele>
        <time>2021-10-16T13:41:51Z</time>
      </trkpt>
      <trkpt lat="45.49639" lon="6.96216">
        <ele>2791</ele>
        <time>2021-10-16T13:41:55Z</time>
      </trkpt>
      <trkpt lat="45.49634" lon="6.96209">
        <ele>2789</ele>
        <time>2021-10-16T13:42:06Z</time>
      </trkpt>
      <trkpt lat="45.49631" lon="6.96204">
        <ele>2784</ele>
        <time>2021-10-16T13:42:22Z</time>
      </trkpt>
      <trkpt lat="45.49633" lon="6.96194">
        <ele>2782</ele>
        <time>2021-10-16T13:42:34Z</time>
      </trkpt>
      <trkpt lat="45.49633" lon="6.96187">
        <ele>2779</ele>
        <time>2021-10-16T13:42:45Z</time>
      </trkpt>
      <trkpt lat="45.49623" lon="6.96185">
        <ele>2773</ele>
        <time>2021-10-16T13:43:09Z</time>
      </trkpt>
      <trkpt lat="45.49619" lon="6.96186">
        <ele>2772</ele>
        <time>2021-10-16T13:43:13Z</time>
      </trkpt>
      <trkpt lat="45.49612" lon="6.96183">
        <ele>2769</ele>
        <time>2021-10-16T13:43:27Z</time>
      </trkpt>
      <trkpt lat="45.49609" lon="6.96177">
        <ele>2767</ele>
        <time>2021-10-16T13:43:34Z</time>
      </trkpt>
      <trkpt lat="45.49611" lon="6.96172">
        <ele>2765</ele>
        <time>2021-10-16T13:43:40Z</time>
      </trkpt>
      <trkpt lat="45.49612" lon="6.96167">
        <ele>2764</ele>
        <time>2021-10-16T13:43:44Z</time>
      </trkpt>
      <trkpt lat="45.49612" lon="6.96156">
        <ele>2761</ele>
        <time>2021-10-16T13:43:58Z</time>
      </trkpt>
      <trkpt lat="45.49603" lon="6.96142">
        <ele>2754</ele>
        <time>2021-10-16T13:44:22Z</time>
      </trkpt>
      <trkpt lat="45.49606" lon="6.96138">
        <ele>2751</ele>
        <time>2021-10-16T13:44:34Z</time>
      </trkpt>
      <trkpt lat="45.49605" lon="6.96126">
        <ele>2748</ele>
        <time>2021-10-16T13:44:46Z</time>
      </trkpt>
      <trkpt lat="45.49608" lon="6.96121">
        <ele>2746</ele>
        <time>2021-10-16T13:44:52Z</time>
      </trkpt>
      <trkpt lat="45.4961" lon="6.96109">
        <ele>2742</ele>
        <time>2021-10-16T13:45:06Z</time>
      </trkpt>
      <trkpt lat="45.4961" lon="6.96099">
        <ele>2739</ele>
        <time>2021-10-16T13:45:18Z</time>
      </trkpt>
      <trkpt lat="45.49614" lon="6.96069">
        <ele>2729</ele>
        <time>2021-10-16T13:45:51Z</time>
      </trkpt>
      <trkpt lat="45.49615" lon="6.96056">
        <ele>2727</ele>
        <time>2021-10-16T13:46:02Z</time>
      </trkpt>
      <trkpt lat="45.49618" lon="6.96049">
        <ele>2724</ele>
        <time>2021-10-16T13:46:10Z</time>
      </trkpt>
      <trkpt lat="45.49621" lon="6.96018">
        <ele>2718</ele>
        <time>2021-10-16T13:46:34Z</time>
      </trkpt>
      <trkpt lat="45.49624" lon="6.96011">
        <ele>2717</ele>
        <time>2021-10-16T13:46:40Z</time>
      </trkpt>
      <trkpt lat="45.49626" lon="6.96004">
        <ele>2714</ele>
        <time>2021-10-16T13:46:48Z</time>
      </trkpt>
      <trkpt lat="45.49636" lon="6.95983">
        <ele>2707</ele>
        <time>2021-10-16T13:47:16Z</time>
      </trkpt>
      <trkpt lat="45.49631" lon="6.95983">
        <ele>2705</ele>
        <time>2021-10-16T13:47:29Z</time>
      </trkpt>
      <trkpt lat="45.49628" lon="6.9598">
        <ele>2701</ele>
        <time>2021-10-16T13:47:47Z</time>
      </trkpt>
      <trkpt lat="45.49628" lon="6.95974">
        <ele>2696</ele>
        <time>2021-10-16T13:48:23Z</time>
      </trkpt>
      <trkpt lat="45.49629" lon="6.95963">
        <ele>2691</ele>
        <time>2021-10-16T13:48:53Z</time>
      </trkpt>
      <trkpt lat="45.49622" lon="6.95962">
        <ele>2688</ele>
        <time>2021-10-16T13:49:05Z</time>
      </trkpt>
      <trkpt lat="45.49617" lon="6.95959">
        <ele>2681</ele>
        <time>2021-10-16T13:49:41Z</time>
      </trkpt>
      <trkpt lat="45.4961" lon="6.95956">
        <ele>2677</ele>
        <time>2021-10-16T13:49:59Z</time>
      </trkpt>
      <trkpt lat="45.496" lon="6.95954">
        <ele>2672</ele>
        <time>2021-10-16T13:50:17Z</time>
      </trkpt>
      <trkpt lat="45.49599" lon="6.95943">
        <ele>2668</ele>
        <time>2021-10-16T13:50:41Z</time>
      </trkpt>
      <trkpt lat="45.49596" lon="6.95938">
        <ele>2664</ele>
        <time>2021-10-16T13:50:53Z</time>
      </trkpt>
      <trkpt lat="45.4959" lon="6.95943">
        <ele>2661</ele>
        <time>2021-10-16T13:51:05Z</time>
      </trkpt>
      <trkpt lat="45.49584" lon="6.95938">
        <ele>2660</ele>
        <time>2021-10-16T13:51:16Z</time>
      </trkpt>
      <trkpt lat="45.49578" lon="6.95935">
        <ele>2655</ele>
        <time>2021-10-16T13:51:34Z</time>
      </trkpt>
      <trkpt lat="45.49574" lon="6.95926">
        <ele>2651</ele>
        <time>2021-10-16T13:51:52Z</time>
      </trkpt>
      <trkpt lat="45.49568" lon="6.95921">
        <ele>2646</ele>
        <time>2021-10-16T13:52:10Z</time>
      </trkpt>
      <trkpt lat="45.49564" lon="6.95921">
        <ele>2645</ele>
        <time>2021-10-16T13:52:15Z</time>
      </trkpt>
      <trkpt lat="45.4956" lon="6.95916">
        <ele>2641</ele>
        <time>2021-10-16T13:52:27Z</time>
      </trkpt>
      <trkpt lat="45.49549" lon="6.95912">
        <ele>2638</ele>
        <time>2021-10-16T13:52:41Z</time>
      </trkpt>
      <trkpt lat="45.49544" lon="6.95912">
        <ele>2637</ele>
        <time>2021-10-16T13:52:45Z</time>
      </trkpt>
      <trkpt lat="45.49541" lon="6.9591">
        <ele>2636</ele>
        <time>2021-10-16T13:52:48Z</time>
      </trkpt>
      <trkpt lat="45.49536" lon="6.95912">
        <ele>2635</ele>
        <time>2021-10-16T13:52:52Z</time>
      </trkpt>
      <trkpt lat="45.49531" lon="6.95906">
        <ele>2634</ele>
        <time>2021-10-16T13:52:59Z</time>
      </trkpt>
      <trkpt lat="45.49527" lon="6.95903">
        <ele>2633</ele>
        <time>2021-10-16T13:53:02Z</time>
      </trkpt>
      <trkpt lat="45.49523" lon="6.95897">
        <ele>2632</ele>
        <time>2021-10-16T13:53:06Z</time>
      </trkpt>
      <trkpt lat="45.49518" lon="6.95896">
        <ele>2632</ele>
        <time>2021-10-16T13:53:12Z</time>
      </trkpt>
      <trkpt lat="45.49513" lon="6.95897">
        <ele>2633</ele>
        <time>2021-10-16T13:53:16Z</time>
      </trkpt>
      <trkpt lat="45.49506" lon="6.95901">
        <ele>2633</ele>
        <time>2021-10-16T13:53:25Z</time>
      </trkpt>
      <trkpt lat="45.49502" lon="6.95907">
        <ele>2634</ele>
        <time>2021-10-16T13:53:43Z</time>
      </trkpt>
      <trkpt lat="45.49498" lon="6.95906">
        <ele>2631</ele>
        <time>2021-10-16T13:54:55Z</time>
      </trkpt>
      <trkpt lat="45.49487" lon="6.95908">
        <ele>2628</ele>
        <time>2021-10-16T13:56:19Z</time>
      </trkpt>
      <trkpt lat="45.49463" lon="6.95929">
        <ele>2622</ele>
        <time>2021-10-16T13:56:50Z</time>
      </trkpt>
      <trkpt lat="45.49454" lon="6.9594">
        <ele>2620</ele>
        <time>2021-10-16T13:57:00Z</time>
      </trkpt>
      <trkpt lat="45.49448" lon="6.9595">
        <ele>2619</ele>
        <time>2021-10-16T13:57:07Z</time>
      </trkpt>
      <trkpt lat="45.49446" lon="6.95953">
        <ele>2619</ele>
        <time>2021-10-16T13:57:11Z</time>
      </trkpt>
      <trkpt lat="45.49442" lon="6.95956">
        <ele>2619</ele>
        <time>2021-10-16T13:57:14Z</time>
      </trkpt>
      <trkpt lat="45.49438" lon="6.9596">
        <ele>2618</ele>
        <time>2021-10-16T13:57:21Z</time>
      </trkpt>
      <trkpt lat="45.49425" lon="6.95969">
        <ele>2615</ele>
        <time>2021-10-16T13:57:35Z</time>
      </trkpt>
      <trkpt lat="45.4942" lon="6.95971">
        <ele>2614</ele>
        <time>2021-10-16T13:57:42Z</time>
      </trkpt>
      <trkpt lat="45.49415" lon="6.95974">
        <ele>2613</ele>
        <time>2021-10-16T13:57:48Z</time>
      </trkpt>
      <trkpt lat="45.49411" lon="6.95979">
        <ele>2612</ele>
        <time>2021-10-16T13:57:53Z</time>
      </trkpt>
      <trkpt lat="45.49409" lon="6.95984">
        <ele>2612</ele>
        <time>2021-10-16T13:57:57Z</time>
      </trkpt>
      <trkpt lat="45.49404" lon="6.95988">
        <ele>2611</ele>
        <time>2021-10-16T13:58:04Z</time>
      </trkpt>
      <trkpt lat="45.49401" lon="6.95991">
        <ele>2611</ele>
        <time>2021-10-16T13:58:07Z</time>
      </trkpt>
      <trkpt lat="45.49397" lon="6.95991">
        <ele>2610</ele>
        <time>2021-10-16T13:58:11Z</time>
      </trkpt>
      <trkpt lat="45.49389" lon="6.95992">
        <ele>2609</ele>
        <time>2021-10-16T13:58:19Z</time>
      </trkpt>
      <trkpt lat="45.49381" lon="6.95994">
        <ele>2608</ele>
        <time>2021-10-16T13:58:25Z</time>
      </trkpt>
      <trkpt lat="45.49374" lon="6.96001">
        <ele>2607</ele>
        <time>2021-10-16T13:58:33Z</time>
      </trkpt>
      <trkpt lat="45.49371" lon="6.96006">
        <ele>2607</ele>
        <time>2021-10-16T13:58:36Z</time>
      </trkpt>
      <trkpt lat="45.49364" lon="6.96014">
        <ele>2606</ele>
        <time>2021-10-16T13:58:44Z</time>
      </trkpt>
      <trkpt lat="45.49359" lon="6.96017">
        <ele>2605</ele>
        <time>2021-10-16T13:58:52Z</time>
      </trkpt>
      <trkpt lat="45.49354" lon="6.96025">
        <ele>2604</ele>
        <time>2021-10-16T13:58:59Z</time>
      </trkpt>
      <trkpt lat="45.49351" lon="6.96028">
        <ele>2603</ele>
        <time>2021-10-16T13:59:03Z</time>
      </trkpt>
      <trkpt lat="45.49347" lon="6.9603">
        <ele>2603</ele>
        <time>2021-10-16T13:59:06Z</time>
      </trkpt>
      <trkpt lat="45.49343" lon="6.96033">
        <ele>2602</ele>
        <time>2021-10-16T13:59:12Z</time>
      </trkpt>
      <trkpt lat="45.49328" lon="6.96053">
        <ele>2598</ele>
        <time>2021-10-16T13:59:32Z</time>
      </trkpt>
      <trkpt lat="45.49327" lon="6.96058">
        <ele>2598</ele>
        <time>2021-10-16T13:59:34Z</time>
      </trkpt>
      <trkpt lat="45.49317" lon="6.9607">
        <ele>2596</ele>
        <time>2021-10-16T13:59:45Z</time>
      </trkpt>
      <trkpt lat="45.49311" lon="6.96079">
        <ele>2595</ele>
        <time>2021-10-16T13:59:52Z</time>
      </trkpt>
      <trkpt lat="45.49308" lon="6.96082">
        <ele>2595</ele>
        <time>2021-10-16T13:59:56Z</time>
      </trkpt>
      <trkpt lat="45.49296" lon="6.96084">
        <ele>2592</ele>
        <time>2021-10-16T14:00:08Z</time>
      </trkpt>
      <trkpt lat="45.49289" lon="6.96088">
        <ele>2591</ele>
        <time>2021-10-16T14:00:15Z</time>
      </trkpt>
      <trkpt lat="45.49285" lon="6.96089">
        <ele>2590</ele>
        <time>2021-10-16T14:00:19Z</time>
      </trkpt>
      <trkpt lat="45.49282" lon="6.96094">
        <ele>2589</ele>
        <time>2021-10-16T14:00:22Z</time>
      </trkpt>
      <trkpt lat="45.49277" lon="6.96096">
        <ele>2588</ele>
        <time>2021-10-16T14:00:28Z</time>
      </trkpt>
      <trkpt lat="45.49273" lon="6.96094">
        <ele>2587</ele>
        <time>2021-10-16T14:00:32Z</time>
      </trkpt>
      <trkpt lat="45.49268" lon="6.96094">
        <ele>2587</ele>
        <time>2021-10-16T14:00:36Z</time>
      </trkpt>
      <trkpt lat="45.49262" lon="6.96097">
        <ele>2586</ele>
        <time>2021-10-16T14:00:42Z</time>
      </trkpt>
      <trkpt lat="45.49259" lon="6.96099">
        <ele>2583</ele>
        <time>2021-10-16T14:00:51Z</time>
      </trkpt>
      <trkpt lat="45.49257" lon="6.96104">
        <ele>2582</ele>
        <time>2021-10-16T14:00:55Z</time>
      </trkpt>
      <trkpt lat="45.49249" lon="6.96104">
        <ele>2578</ele>
        <time>2021-10-16T14:01:06Z</time>
      </trkpt>
      <trkpt lat="45.49245" lon="6.96106">
        <ele>2577</ele>
        <time>2021-10-16T14:01:11Z</time>
      </trkpt>
      <trkpt lat="45.49238" lon="6.96114">
        <ele>2575</ele>
        <time>2021-10-16T14:01:20Z</time>
      </trkpt>
      <trkpt lat="45.49235" lon="6.96119">
        <ele>2572</ele>
        <time>2021-10-16T14:01:28Z</time>
      </trkpt>
      <trkpt lat="45.49228" lon="6.96124">
        <ele>2571</ele>
        <time>2021-10-16T14:01:35Z</time>
      </trkpt>
      <trkpt lat="45.49218" lon="6.96122">
        <ele>2569</ele>
        <time>2021-10-16T14:01:43Z</time>
      </trkpt>
      <trkpt lat="45.49215" lon="6.96123">
        <ele>2568</ele>
        <time>2021-10-16T14:01:46Z</time>
      </trkpt>
      <trkpt lat="45.49211" lon="6.96124">
        <ele>2568</ele>
        <time>2021-10-16T14:01:49Z</time>
      </trkpt>
      <trkpt lat="45.49205" lon="6.96134">
        <ele>2565</ele>
        <time>2021-10-16T14:02:00Z</time>
      </trkpt>
      <trkpt lat="45.49205" lon="6.96142">
        <ele>2563</ele>
        <time>2021-10-16T14:02:06Z</time>
      </trkpt>
      <trkpt lat="45.49201" lon="6.96152">
        <ele>2561</ele>
        <time>2021-10-16T14:02:13Z</time>
      </trkpt>
      <trkpt lat="45.49197" lon="6.96154">
        <ele>2560</ele>
        <time>2021-10-16T14:02:17Z</time>
      </trkpt>
      <trkpt lat="45.49194" lon="6.9616">
        <ele>2558</ele>
        <time>2021-10-16T14:02:24Z</time>
      </trkpt>
      <trkpt lat="45.49191" lon="6.96162">
        <ele>2557</ele>
        <time>2021-10-16T14:02:29Z</time>
      </trkpt>
      <trkpt lat="45.49187" lon="6.96174">
        <ele>2554</ele>
        <time>2021-10-16T14:02:41Z</time>
      </trkpt>
      <trkpt lat="45.49183" lon="6.96179">
        <ele>2550</ele>
        <time>2021-10-16T14:02:53Z</time>
      </trkpt>
      <trkpt lat="45.49174" lon="6.9617">
        <ele>2545</ele>
        <time>2021-10-16T14:03:11Z</time>
      </trkpt>
      <trkpt lat="45.49173" lon="6.96165">
        <ele>2544</ele>
        <time>2021-10-16T14:03:14Z</time>
      </trkpt>
      <trkpt lat="45.4916" lon="6.96163">
        <ele>2539</ele>
        <time>2021-10-16T14:03:30Z</time>
      </trkpt>
      <trkpt lat="45.4915" lon="6.96146">
        <ele>2534</ele>
        <time>2021-10-16T14:03:49Z</time>
      </trkpt>
      <trkpt lat="45.4915" lon="6.9614">
        <ele>2533</ele>
        <time>2021-10-16T14:03:53Z</time>
      </trkpt>
      <trkpt lat="45.49145" lon="6.96136">
        <ele>2530</ele>
        <time>2021-10-16T14:04:01Z</time>
      </trkpt>
      <trkpt lat="45.49141" lon="6.96132">
        <ele>2530</ele>
        <time>2021-10-16T14:04:04Z</time>
      </trkpt>
      <trkpt lat="45.49134" lon="6.96128">
        <ele>2529</ele>
        <time>2021-10-16T14:04:10Z</time>
      </trkpt>
      <trkpt lat="45.49122" lon="6.96117">
        <ele>2527</ele>
        <time>2021-10-16T14:04:20Z</time>
      </trkpt>
      <trkpt lat="45.49117" lon="6.96112">
        <ele>2526</ele>
        <time>2021-10-16T14:04:27Z</time>
      </trkpt>
      <trkpt lat="45.49094" lon="6.96115">
        <ele>2520</ele>
        <time>2021-10-16T14:04:49Z</time>
      </trkpt>
      <trkpt lat="45.4909" lon="6.96114">
        <ele>2520</ele>
        <time>2021-10-16T14:04:52Z</time>
      </trkpt>
      <trkpt lat="45.4908" lon="6.96124">
        <ele>2517</ele>
        <time>2021-10-16T14:05:04Z</time>
      </trkpt>
      <trkpt lat="45.49067" lon="6.96128">
        <ele>2513</ele>
        <time>2021-10-16T14:05:18Z</time>
      </trkpt>
      <trkpt lat="45.49062" lon="6.96133">
        <ele>2511</ele>
        <time>2021-10-16T14:05:25Z</time>
      </trkpt>
      <trkpt lat="45.49057" lon="6.96136">
        <ele>2510</ele>
        <time>2021-10-16T14:05:29Z</time>
      </trkpt>
      <trkpt lat="45.4905" lon="6.96139">
        <ele>2509</ele>
        <time>2021-10-16T14:05:35Z</time>
      </trkpt>
      <trkpt lat="45.49031" lon="6.96153">
        <ele>2505</ele>
        <time>2021-10-16T14:05:55Z</time>
      </trkpt>
      <trkpt lat="45.49025" lon="6.9617">
        <ele>2503</ele>
        <time>2021-10-16T14:06:06Z</time>
      </trkpt>
      <trkpt lat="45.49025" lon="6.96175">
        <ele>2503</ele>
        <time>2021-10-16T14:06:09Z</time>
      </trkpt>
      <trkpt lat="45.49022" lon="6.96181">
        <ele>2502</ele>
        <time>2021-10-16T14:06:13Z</time>
      </trkpt>
      <trkpt lat="45.49018" lon="6.96187">
        <ele>2499</ele>
        <time>2021-10-16T14:06:21Z</time>
      </trkpt>
      <trkpt lat="45.49016" lon="6.96193">
        <ele>2498</ele>
        <time>2021-10-16T14:06:25Z</time>
      </trkpt>
      <trkpt lat="45.49014" lon="6.96214">
        <ele>2495</ele>
        <time>2021-10-16T14:06:41Z</time>
      </trkpt>
      <trkpt lat="45.49017" lon="6.96234">
        <ele>2492</ele>
        <time>2021-10-16T14:06:54Z</time>
      </trkpt>
      <trkpt lat="45.49011" lon="6.96255">
        <ele>2489</ele>
        <time>2021-10-16T14:07:09Z</time>
      </trkpt>
      <trkpt lat="45.49011" lon="6.96279">
        <ele>2485</ele>
        <time>2021-10-16T14:07:27Z</time>
      </trkpt>
      <trkpt lat="45.4901" lon="6.96293">
        <ele>2482</ele>
        <time>2021-10-16T14:07:40Z</time>
      </trkpt>
      <trkpt lat="45.49012" lon="6.96298">
        <ele>2481</ele>
        <time>2021-10-16T14:07:45Z</time>
      </trkpt>
      <trkpt lat="45.49012" lon="6.96305">
        <ele>2480</ele>
        <time>2021-10-16T14:07:48Z</time>
      </trkpt>
      <trkpt lat="45.49015" lon="6.96309">
        <ele>2479</ele>
        <time>2021-10-16T14:07:51Z</time>
      </trkpt>
      <trkpt lat="45.4901" lon="6.96325">
        <ele>2477</ele>
        <time>2021-10-16T14:08:01Z</time>
      </trkpt>
      <trkpt lat="45.49008" lon="6.9633">
        <ele>2477</ele>
        <time>2021-10-16T14:08:05Z</time>
      </trkpt>
      <trkpt lat="45.49003" lon="6.96333">
        <ele>2476</ele>
        <time>2021-10-16T14:08:08Z</time>
      </trkpt>
      <trkpt lat="45.49" lon="6.9634">
        <ele>2475</ele>
        <time>2021-10-16T14:08:14Z</time>
      </trkpt>
      <trkpt lat="45.49" lon="6.96352">
        <ele>2473</ele>
        <time>2021-10-16T14:08:22Z</time>
      </trkpt>
      <trkpt lat="45.48997" lon="6.96368">
        <ele>2471</ele>
        <time>2021-10-16T14:08:33Z</time>
      </trkpt>
      <trkpt lat="45.48996" lon="6.9638">
        <ele>2468</ele>
        <time>2021-10-16T14:08:44Z</time>
      </trkpt>
      <trkpt lat="45.48998" lon="6.96389">
        <ele>2467</ele>
        <time>2021-10-16T14:08:50Z</time>
      </trkpt>
      <trkpt lat="45.49001" lon="6.96405">
        <ele>2464</ele>
        <time>2021-10-16T14:09:03Z</time>
      </trkpt>
      <trkpt lat="45.49005" lon="6.96411">
        <ele>2462</ele>
        <time>2021-10-16T14:09:10Z</time>
      </trkpt>
      <trkpt lat="45.49007" lon="6.96418">
        <ele>2460</ele>
        <time>2021-10-16T14:09:18Z</time>
      </trkpt>
      <trkpt lat="45.49007" lon="6.96425">
        <ele>2459</ele>
        <time>2021-10-16T14:09:22Z</time>
      </trkpt>
      <trkpt lat="45.49005" lon="6.96429">
        <ele>2458</ele>
        <time>2021-10-16T14:09:26Z</time>
      </trkpt>
      <trkpt lat="45.49001" lon="6.96449">
        <ele>2454</ele>
        <time>2021-10-16T14:09:42Z</time>
      </trkpt>
      <trkpt lat="45.49" lon="6.96454">
        <ele>2453</ele>
        <time>2021-10-16T14:09:45Z</time>
      </trkpt>
      <trkpt lat="45.49001" lon="6.9647">
        <ele>2450</ele>
        <time>2021-10-16T14:09:56Z</time>
      </trkpt>
      <trkpt lat="45.48991" lon="6.96495">
        <ele>2444</ele>
        <time>2021-10-16T14:10:21Z</time>
      </trkpt>
      <trkpt lat="45.48994" lon="6.96531">
        <ele>2435</ele>
        <time>2021-10-16T14:10:51Z</time>
      </trkpt>
      <trkpt lat="45.48993" lon="6.96544">
        <ele>2433</ele>
        <time>2021-10-16T14:11:01Z</time>
      </trkpt>
      <trkpt lat="45.4899" lon="6.96554">
        <ele>2431</ele>
        <time>2021-10-16T14:11:09Z</time>
      </trkpt>
      <trkpt lat="45.48983" lon="6.96547">
        <ele>2429</ele>
        <time>2021-10-16T14:11:19Z</time>
      </trkpt>
      <trkpt lat="45.4898" lon="6.96543">
        <ele>2426</ele>
        <time>2021-10-16T14:11:27Z</time>
      </trkpt>
      <trkpt lat="45.48976" lon="6.96544">
        <ele>2425</ele>
        <time>2021-10-16T14:11:31Z</time>
      </trkpt>
      <trkpt lat="45.48967" lon="6.96557">
        <ele>2419</ele>
        <time>2021-10-16T14:11:49Z</time>
      </trkpt>
      <trkpt lat="45.48964" lon="6.96559">
        <ele>2417</ele>
        <time>2021-10-16T14:11:55Z</time>
      </trkpt>
      <trkpt lat="45.48961" lon="6.96555">
        <ele>2415</ele>
        <time>2021-10-16T14:12:04Z</time>
      </trkpt>
      <trkpt lat="45.48957" lon="6.96554">
        <ele>2412</ele>
        <time>2021-10-16T14:12:10Z</time>
      </trkpt>
      <trkpt lat="45.4895" lon="6.96544">
        <ele>2408</ele>
        <time>2021-10-16T14:12:22Z</time>
      </trkpt>
      <trkpt lat="45.48947" lon="6.96541">
        <ele>2406</ele>
        <time>2021-10-16T14:12:26Z</time>
      </trkpt>
      <trkpt lat="45.48931" lon="6.96545">
        <ele>2399</ele>
        <time>2021-10-16T14:12:51Z</time>
      </trkpt>
      <trkpt lat="45.48928" lon="6.96548">
        <ele>2398</ele>
        <time>2021-10-16T14:12:57Z</time>
      </trkpt>
      <trkpt lat="45.48923" lon="6.96547">
        <ele>2396</ele>
        <time>2021-10-16T14:13:02Z</time>
      </trkpt>
      <trkpt lat="45.48919" lon="6.96549">
        <ele>2395</ele>
        <time>2021-10-16T14:13:06Z</time>
      </trkpt>
      <trkpt lat="45.48914" lon="6.96547">
        <ele>2391</ele>
        <time>2021-10-16T14:13:14Z</time>
      </trkpt>
      <trkpt lat="45.48903" lon="6.96546">
        <ele>2384</ele>
        <time>2021-10-16T14:13:37Z</time>
      </trkpt>
      <trkpt lat="45.48899" lon="6.96547">
        <ele>2383</ele>
        <time>2021-10-16T14:13:41Z</time>
      </trkpt>
      <trkpt lat="45.48896" lon="6.96551">
        <ele>2382</ele>
        <time>2021-10-16T14:13:44Z</time>
      </trkpt>
      <trkpt lat="45.48892" lon="6.96559">
        <ele>2380</ele>
        <time>2021-10-16T14:13:51Z</time>
      </trkpt>
      <trkpt lat="45.48891" lon="6.96569">
        <ele>2377</ele>
        <time>2021-10-16T14:14:01Z</time>
      </trkpt>
      <trkpt lat="45.48887" lon="6.96573">
        <ele>2376</ele>
        <time>2021-10-16T14:14:06Z</time>
      </trkpt>
      <trkpt lat="45.48883" lon="6.96576">
        <ele>2374</ele>
        <time>2021-10-16T14:14:14Z</time>
      </trkpt>
      <trkpt lat="45.4888" lon="6.9658">
        <ele>2372</ele>
        <time>2021-10-16T14:14:20Z</time>
      </trkpt>
      <trkpt lat="45.48871" lon="6.96585">
        <ele>2368</ele>
        <time>2021-10-16T14:14:34Z</time>
      </trkpt>
      <trkpt lat="45.48861" lon="6.96582">
        <ele>2363</ele>
        <time>2021-10-16T14:14:51Z</time>
      </trkpt>
      <trkpt lat="45.48851" lon="6.96586">
        <ele>2360</ele>
        <time>2021-10-16T14:15:04Z</time>
      </trkpt>
      <trkpt lat="45.48842" lon="6.96594">
        <ele>2355</ele>
        <time>2021-10-16T14:15:19Z</time>
      </trkpt>
      <trkpt lat="45.48841" lon="6.966">
        <ele>2353</ele>
        <time>2021-10-16T14:15:28Z</time>
      </trkpt>
      <trkpt lat="45.48826" lon="6.96615">
        <ele>2345</ele>
        <time>2021-10-16T14:15:56Z</time>
      </trkpt>
      <trkpt lat="45.4882" lon="6.96619">
        <ele>2342</ele>
        <time>2021-10-16T14:16:07Z</time>
      </trkpt>
      <trkpt lat="45.48816" lon="6.96626">
        <ele>2338</ele>
        <time>2021-10-16T14:16:20Z</time>
      </trkpt>
      <trkpt lat="45.48815" lon="6.96632">
        <ele>2336</ele>
        <time>2021-10-16T14:16:24Z</time>
      </trkpt>
      <trkpt lat="45.48812" lon="6.96637">
        <ele>2334</ele>
        <time>2021-10-16T14:16:31Z</time>
      </trkpt>
      <trkpt lat="45.48804" lon="6.96648">
        <ele>2330</ele>
        <time>2021-10-16T14:16:47Z</time>
      </trkpt>
      <trkpt lat="45.48789" lon="6.96662">
        <ele>2323</ele>
        <time>2021-10-16T14:17:10Z</time>
      </trkpt>
      <trkpt lat="45.48785" lon="6.96663">
        <ele>2322</ele>
        <time>2021-10-16T14:17:16Z</time>
      </trkpt>
      <trkpt lat="45.48781" lon="6.96665">
        <ele>2320</ele>
        <time>2021-10-16T14:17:21Z</time>
      </trkpt>
      <trkpt lat="45.48779" lon="6.96669">
        <ele>2319</ele>
        <time>2021-10-16T14:17:24Z</time>
      </trkpt>
      <trkpt lat="45.48754" lon="6.96688">
        <ele>2310</ele>
        <time>2021-10-16T14:17:56Z</time>
      </trkpt>
      <trkpt lat="45.48744" lon="6.96694">
        <ele>2307</ele>
        <time>2021-10-16T14:18:08Z</time>
      </trkpt>
      <trkpt lat="45.48726" lon="6.96709">
        <ele>2302</ele>
        <time>2021-10-16T14:18:28Z</time>
      </trkpt>
      <trkpt lat="45.48701" lon="6.96744">
        <ele>2293</ele>
        <time>2021-10-16T14:19:02Z</time>
      </trkpt>
      <trkpt lat="45.48698" lon="6.96747">
        <ele>2292</ele>
        <time>2021-10-16T14:19:05Z</time>
      </trkpt>
      <trkpt lat="45.48693" lon="6.96754">
        <ele>2291</ele>
        <time>2021-10-16T14:19:12Z</time>
      </trkpt>
      <trkpt lat="45.4869" lon="6.96757">
        <ele>2290</ele>
        <time>2021-10-16T14:19:15Z</time>
      </trkpt>
      <trkpt lat="45.48685" lon="6.96765">
        <ele>2289</ele>
        <time>2021-10-16T14:19:22Z</time>
      </trkpt>
      <trkpt lat="45.48674" lon="6.96776">
        <ele>2287</ele>
        <time>2021-10-16T14:19:32Z</time>
      </trkpt>
      <trkpt lat="45.48669" lon="6.96787">
        <ele>2285</ele>
        <time>2021-10-16T14:19:42Z</time>
      </trkpt>
      <trkpt lat="45.48666" lon="6.9679">
        <ele>2285</ele>
        <time>2021-10-16T14:19:45Z</time>
      </trkpt>
      <trkpt lat="45.48662" lon="6.96792">
        <ele>2285</ele>
        <time>2021-10-16T14:19:50Z</time>
      </trkpt>
      <trkpt lat="45.48657" lon="6.96796">
        <ele>2283</ele>
        <time>2021-10-16T14:22:07Z</time>
      </trkpt>
      <trkpt lat="45.4866" lon="6.968">
        <ele>2281</ele>
        <time>2021-10-16T14:29:30Z</time>
      </trkpt>
      <trkpt lat="45.48661" lon="6.96789">
        <ele>2281</ele>
        <time>2021-10-16T14:29:46Z</time>
      </trkpt>
      <trkpt lat="45.48657" lon="6.96783">
        <ele>2281</ele>
        <time>2021-10-16T14:29:48Z</time>
      </trkpt>
      <trkpt lat="45.48651" lon="6.96777">
        <ele>2281</ele>
        <time>2021-10-16T14:29:50Z</time>
      </trkpt>
      <trkpt lat="45.48609" lon="6.9673">
        <ele>2277</ele>
        <time>2021-10-16T14:30:05Z</time>
      </trkpt>
      <trkpt lat="45.48602" lon="6.96725">
        <ele>2276</ele>
        <time>2021-10-16T14:30:07Z</time>
      </trkpt>
      <trkpt lat="45.48584" lon="6.96727">
        <ele>2274</ele>
        <time>2021-10-16T14:30:11Z</time>
      </trkpt>
      <trkpt lat="45.48575" lon="6.96727">
        <ele>2274</ele>
        <time>2021-10-16T14:30:13Z</time>
      </trkpt>
      <trkpt lat="45.48567" lon="6.9672">
        <ele>2274</ele>
        <time>2021-10-16T14:30:15Z</time>
      </trkpt>
      <trkpt lat="45.48551" lon="6.96678">
        <ele>2273</ele>
        <time>2021-10-16T14:30:20Z</time>
      </trkpt>
      <trkpt lat="45.48547" lon="6.9667">
        <ele>2273</ele>
        <time>2021-10-16T14:30:21Z</time>
      </trkpt>
      <trkpt lat="45.48539" lon="6.96657">
        <ele>2272</ele>
        <time>2021-10-16T14:30:23Z</time>
      </trkpt>
      <trkpt lat="45.48529" lon="6.9665">
        <ele>2270</ele>
        <time>2021-10-16T14:30:25Z</time>
      </trkpt>
      <trkpt lat="45.48527" lon="6.96645">
        <ele>2267</ele>
        <time>2021-10-16T14:31:17Z</time>
      </trkpt>
      <trkpt lat="45.48533" lon="6.96642">
        <ele>2267</ele>
        <time>2021-10-16T14:31:22Z</time>
      </trkpt>
      <trkpt lat="45.48539" lon="6.96639">
        <ele>2266</ele>
        <time>2021-10-16T14:31:27Z</time>
      </trkpt>
      <trkpt lat="45.48541" lon="6.96649">
        <ele>2268</ele>
        <time>2021-10-16T14:31:56Z</time>
      </trkpt>
      <trkpt lat="45.48523" lon="6.96647">
        <ele>2266</ele>
        <time>2021-10-16T14:32:14Z</time>
      </trkpt>
      <trkpt lat="45.48497" lon="6.96657">
        <ele>2266</ele>
        <time>2021-10-16T14:32:19Z</time>
      </trkpt>
      <trkpt lat="45.48487" lon="6.96661">
        <ele>2265</ele>
        <time>2021-10-16T14:32:21Z</time>
      </trkpt>
      <trkpt lat="45.48481" lon="6.96659">
        <ele>2264</ele>
        <time>2021-10-16T14:32:22Z</time>
      </trkpt>
      <trkpt lat="45.48475" lon="6.96657">
        <ele>2264</ele>
        <time>2021-10-16T14:32:23Z</time>
      </trkpt>
      <trkpt lat="45.48468" lon="6.96656">
        <ele>2263</ele>
        <time>2021-10-16T14:32:24Z</time>
      </trkpt>
    </trkseg>
  </trk>
  <rte>
    <name><![CDATA[4 avr. 2019 à 23:11:12]]></name>
    <cmt><![CDATA[4 avr. 2019 à 23:11:12]]></cmt>
    <desc><![CDATA[{DC1}Heure de fin	: 
Durée totale	: 0h00:00
Moyenne globale	: -
Pente moyenne	: 0.00 %
Aire incluse	: 7.4932 ha
Détails par segments
distance  | durée    | vit.moy. | vit.max. | déniv. + | déniv -
   km     | hh:mn:ss |   km/h   |   km/h   |    m     |    m
     0.81 | 00:00:00 |      0.0 |      0.0 |        0 |        0{DC2}]]></desc>
      <rtept lat="45.60077" lon="6.18221">
        <ele>1608.6</ele>
      </rtept>
      <rtept lat="45.59468" lon="6.1822">
        <ele>1760.9</ele>
      </rtept>
      <rtept lat="45.59468" lon="6.1822">
        <ele>1760.9</ele>
      </rtept>
    </rte>
  <rte>
    <name><![CDATA[10 févr. 2019 à 15:16:12]]></name>
    <cmt><![CDATA[10 févr. 2019 à 15:16:12]]></cmt>
    <desc><![CDATA[{DC1}Heure de fin	: 00:09:21
Durée totale	: -17690439h43:48
Moyenne globale	: -
Pente moyenne	: 7.00 %
Aire incluse	: 221.0936 ha
Détails par segments
distance  | durée    | vit.moy. | vit.max. | déniv. + | déniv -
   km     | hh:mn:ss |   km/h   |   km/h   |    m     |    m
     7.48 | 00:00:00 |      0.0 |      0.0 |        0 |        0{DC2}]]></desc>
      <rtept lat="45.55203" lon="5.93805">
        <ele>376</ele>
      </rtept>
      <rtept lat="45.55177" lon="5.93873">
        <ele>369</ele>
      </rtept>
      <rtept lat="45.55176" lon="5.93942">
        <ele>367</ele>
      </rtept>
      <rtept lat="45.55105" lon="5.93942">
        <ele>367</ele>
      </rtept>
      <rtept lat="45.54993" lon="5.93908">
        <ele>371</ele>
      </rtept>
      <rtept lat="45.54929" lon="5.94099">
        <ele>370</ele>
      </rtept>
      <rtept lat="45.54908" lon="5.94204">
        <ele>367</ele>
      </rtept>
      <rtept lat="45.54991" lon="5.94287">
        <ele>365</ele>
      </rtept>
      <rtept lat="45.5506" lon="5.94384">
        <ele>361</ele>
      </rtept>
      <rtept lat="45.55147" lon="5.94384">
        <ele>357</ele>
      </rtept>
      <rtept lat="45.55129" lon="5.94607">
        <ele>358</ele>
      </rtept>
      <rtept lat="45.55029" lon="5.94809">
        <ele>355</ele>
      </rtept>
      <rtept lat="45.54884" lon="5.94886">
        <ele>346</ele>
      </rtept>
      <rtept lat="45.5477" lon="5.94931">
        <ele>342</ele>
      </rtept>
      <rtept lat="45.5468" lon="5.95004">
        <ele>339</ele>
      </rtept>
      <rtept lat="45.54596" lon="5.95133">
        <ele>340</ele>
      </rtept>
      <rtept lat="45.54446" lon="5.95195">
        <ele>343</ele>
      </rtept>
      <rtept lat="45.543" lon="5.95262">
        <ele>344</ele>
      </rtept>
      <rtept lat="45.54156" lon="5.95212">
        <ele>337</ele>
      </rtept>
      <rtept lat="45.54041" lon="5.95204">
        <ele>338</ele>
      </rtept>
      <rtept lat="45.53917" lon="5.95141">
        <ele>343</ele>
      </rtept>
      <rtept lat="45.53844" lon="5.95135">
        <ele>347</ele>
      </rtept>
      <rtept lat="45.53765" lon="5.9503">
        <ele>349</ele>
      </rtept>
      <rtept lat="45.5381" lon="5.94993">
        <ele>352</ele>
      </rtept>
      <rtept lat="45.53781" lon="5.94901">
        <ele>358</ele>
      </rtept>
      <rtept lat="45.53711" lon="5.94845">
        <ele>365</ele>
      </rtept>
      <rtept lat="45.53702" lon="5.94764">
        <ele>369</ele>
      </rtept>
      <rtept lat="45.53817" lon="5.94807">
        <ele>376</ele>
      </rtept>
      <rtept lat="45.53865" lon="5.94633">
        <ele>389</ele>
      </rtept>
      <rtept lat="45.53778" lon="5.94491">
        <ele>408</ele>
      </rtept>
      <rtept lat="45.53757" lon="5.94371">
        <ele>425</ele>
      </rtept>
      <rtept lat="45.53775" lon="5.94279">
        <ele>434</ele>
      </rtept>
      <rtept lat="45.53726" lon="5.94227">
        <ele>442</ele>
      </rtept>
      <rtept lat="45.53572" lon="5.94146">
        <ele>468</ele>
      </rtept>
      <rtept lat="45.53664" lon="5.94039">
        <ele>483</ele>
      </rtept>
      <rtept lat="45.53532" lon="5.93983">
        <ele>505</ele>
      </rtept>
      <rtept lat="45.53416" lon="5.93985">
        <ele>516</ele>
      </rtept>
      <rtept lat="45.5355" lon="5.93869">
        <ele>532</ele>
      </rtept>
      <rtept lat="45.5359" lon="5.93845">
        <ele>537</ele>
      </rtept>
      <rtept lat="45.5355" lon="5.93802">
        <ele>544</ele>
      </rtept>
      <rtept lat="45.53724" lon="5.93554">
        <ele>587</ele>
      </rtept>
      <rtept lat="45.53691" lon="5.93339">
        <ele>592</ele>
      </rtept>
      <rtept lat="45.5376" lon="5.93178">
        <ele>575</ele>
      </rtept>
      <rtept lat="45.53843" lon="5.93069">
        <ele>555</ele>
      </rtept>
      <rtept lat="45.53939" lon="5.93157">
        <ele>541</ele>
      </rtept>
      <rtept lat="45.54068" lon="5.93234">
        <ele>522</ele>
      </rtept>
      <rtept lat="45.54219" lon="5.93247">
        <ele>514</ele>
      </rtept>
      <rtept lat="45.54355" lon="5.93232">
        <ele>512</ele>
      </rtept>
      <rtept lat="45.54489" lon="5.9326">
        <ele>508</ele>
      </rtept>
      <rtept lat="45.54636" lon="5.93249">
        <ele>510</ele>
      </rtept>
      <rtept lat="45.54758" lon="5.93249">
        <ele>510</ele>
      </rtept>
      <rtept lat="45.54818" lon="5.93298">
        <ele>507</ele>
      </rtept>
      <rtept lat="45.54796" lon="5.93418">
        <ele>496</ele>
      </rtept>
      <rtept lat="45.5491" lon="5.93433">
        <ele>483</ele>
      </rtept>
      <rtept lat="45.55126" lon="5.9341">
        <ele>463</ele>
      </rtept>
      <rtept lat="45.55256" lon="5.93453">
        <ele>444</ele>
      </rtept>
      <rtept lat="45.55329" lon="5.93558">
        <ele>430</ele>
      </rtept>
      <rtept lat="45.55222" lon="5.93642">
        <ele>415</ele>
      </rtept>
      <rtept lat="45.55195" lon="5.93811">
        <ele>375</ele>
      </rtept>
    </rte>
  <rte>
    <name><![CDATA[10 févr. 2019 à 15:15:48]]></name>
    <cmt><![CDATA[10 févr. 2019 à 15:15:48]]></cmt>
    <desc><![CDATA[{DC1}Heure de fin	: 00:09:21
Durée totale	: -17690439h44:12
Moyenne globale	: -
Pente moyenne	: nan %
Aire incluse	: 0.0000 ha
Détails par segments
distance  | durée    | vit.moy. | vit.max. | déniv. + | déniv -
   km     | hh:mn:ss |   km/h   |   km/h   |    m     |    m
     0.00 | 00:00:00 |      0.0 |      0.0 |        0 |        0{DC2}]]></desc>
      <rtept lat="45.5175" lon="5.93483">
        <ele>732.3</ele>
      </rtept>
    </rte>
  <rte>
    <name><![CDATA[10 févr. 2019 à 15:06:08]]></name>
    <cmt><![CDATA[10 févr. 2019 à 15:06:08]]></cmt>
    <desc><![CDATA[{DC1}Heure de fin	: 
Durée totale	: 0h00:00
Moyenne globale	: -
Pente moyenne	: 8.03 %
Aire incluse	: 204.0794 ha
Détails par segments
distance  | durée    | vit.moy. | vit.max. | déniv. + | déniv -
   km     | hh:mn:ss |   km/h   |   km/h   |    m     |    m
    12.88 | 00:00:00 |      0.0 |      0.0 |        0 |        0{DC2}]]></desc>
      <rtept lat="45.5509" lon="5.9394">
        <ele>368</ele>
      </rtept>
      <rtept lat="45.55217" lon="5.93791">
        <ele>377</ele>
      </rtept>
    </rte>
  <rte>
    <name><![CDATA[10 févr. 2019 à 14:22:06]]></name>
    <cmt><![CDATA[10 févr. 2019 à 14:22:06]]></cmt>
    <desc><![CDATA[{DC1}Heure de fin	: 00:09:21
Durée totale	: -17690438h37:54
Moyenne globale	: -
Pente moyenne	: 5.62 %
Aire incluse	: 5.7967 ha
Détails par segments
distance  | durée    | vit.moy. | vit.max. | déniv. + | déniv -
   km     | hh:mn:ss |   km/h   |   km/h   |    m     |    m
     3.30 | 00:00:00 |      0.0 |      0.0 |        0 |        0{DC2}]]></desc>
      <rtept lat="45.55169" lon="5.93089">
        <ele>415</ele>
      </rtept>
      <rtept lat="45.5518" lon="5.93905">
        <ele>366</ele>
      </rtept>
    </rte>
  <rte>
    <name><![CDATA[10 févr. 2019 à 09:50:45]]></name>
    <cmt><![CDATA[10 févr. 2019 à 09:50:45]]></cmt>
    <desc><![CDATA[{DC1}Heure de fin	: 00:09:21
Durée totale	: -17690433h09:14
Moyenne globale	: -
Pente moyenne	: 0.00 %
Aire incluse	: 50.7119 ha
Détails par segments
distance  | durée    | vit.moy. | vit.max. | déniv. + | déniv -
   km     | hh:mn:ss |   km/h   |   km/h   |    m     |    m
     4.33 | 00:00:00 |      0.0 |      0.0 |        0 |        0{DC2}]]></desc>
      <rtept lat="45.5503" lon="5.93918">
        <ele>373.6</ele>
      </rtept>
      <rtept lat="45.55191" lon="5.93893">
        <ele>366.7</ele>
      </rtept>
    </rte>
  <rte>
    <name><![CDATA[10 févr. 2019 à 09:07:08]]></name>
    <cmt><![CDATA[10 févr. 2019 à 09:07:08]]></cmt>
    <desc><![CDATA[{DC1}Heure de fin	: 00:09:21
Durée totale	: -17690433h52:52
Moyenne globale	: -
Pente moyenne	: nan %
Aire incluse	: 0.0000 ha
Détails par segments
distance  | durée    | vit.moy. | vit.max. | déniv. + | déniv -
   km     | hh:mn:ss |   km/h   |   km/h   |    m     |    m
     0.00 | 00:00:00 |      0.0 |      0.0 |        0 |        0{DC2}]]></desc>
      <rtept lat="45.55102" lon="5.93919">
        <ele>370.1</ele>
      </rtept>
    </rte>
  <rte>
    <name><![CDATA[10 févr. 2019 à 09:02:25]]></name>
    <cmt><![CDATA[10 févr. 2019 à 09:02:25]]></cmt>
    <desc><![CDATA[{DC1}Heure de fin	: 00:09:21
Durée totale	: -17690433h57:35
Moyenne globale	: -
Pente moyenne	: nan %
Aire incluse	: 0.0000 ha
Détails par segments
distance  | durée    | vit.moy. | vit.max. | déniv. + | déniv -
   km     | hh:mn:ss |   km/h   |   km/h   |    m     |    m
     0.00 | 00:00:00 |      0.0 |      0.0 |        0 |        0{DC2}]]></desc>
      <rtept lat="45.55207" lon="5.93813">
        <ele>375.2</ele>
      </rtept>
    </rte>
  <rte>
    <name><![CDATA[10 févr. 2019 à 09:00:27]]></name>
    <cmt><![CDATA[10 févr. 2019 à 09:00:27]]></cmt>
    <desc><![CDATA[{DC1}Heure de fin	: 00:09:21
Durée totale	: -17690433h59:32
Moyenne globale	: -
Pente moyenne	: nan %
Aire incluse	: 0.0000 ha
Détails par segments
distance  | durée    | vit.moy. | vit.max. | déniv. + | déniv -
   km     | hh:mn:ss |   km/h   |   km/h   |    m     |    m
     0.00 | 00:00:00 |      0.0 |      0.0 |        0 |        0{DC2}]]></desc>
      <rtept lat="45.55244" lon="5.93858">
        <ele>366.6</ele>
      </rtept>
    </rte>
</gpx>